<?xml version="1.0" encoding="utf-8"?>
<gpx xmlns:xsi="http://www.w3.org/2001/XMLSchema-instance" xmlns:xsd="http://www.w3.org/2001/XMLSchema" version="1.1" creator="Shapelink.com" xmlns="http://www.topografix.com/GPX/1/1" xmlns:gpxtpx="http://www.garmin.com/xmlschemas/TrackPointExtension/v1">
  <metadata>
    <name>Cycling 40.24 km, 2020-09-06</name>
    <desc></desc>
    <author><name>Marian Moron</name></author> 
    <time>2020-09-06T12:12:38Z</time>
  </metadata>
  <trk>
    <name>Cycling 40.24 km, 2020-09-06</name>
    <trkseg>
      <trkpt lat="51.233136472202" lon="4.461537261827">
        <ele>0</ele>
        <time>2020-09-06T12:12:38Z</time>
      </trkpt>
      <trkpt lat="51.233235294803" lon="4.462196414443">
        <ele>0</ele>
        <time>2020-09-06T12:12:47Z</time>
      </trkpt>
      <trkpt lat="51.233269409136" lon="4.462338655286">
        <ele>0</ele>
        <time>2020-09-06T12:12:49Z</time>
      </trkpt>
      <trkpt lat="51.233398071301" lon="4.463242810839">
        <ele>0</ele>
        <time>2020-09-06T12:12:59Z</time>
      </trkpt>
      <trkpt lat="51.233479291912" lon="4.463782269923">
        <ele>0</ele>
        <time>2020-09-06T12:13:05Z</time>
      </trkpt>
      <trkpt lat="51.233601332376" lon="4.464576035853">
        <ele>0</ele>
        <time>2020-09-06T12:13:26Z</time>
      </trkpt>
      <trkpt lat="51.233732425292" lon="4.465446915263">
        <ele>0</ele>
        <time>2020-09-06T12:13:36Z</time>
      </trkpt>
      <trkpt lat="51.233878857085" lon="4.466335312844">
        <ele>0</ele>
        <time>2020-09-06T12:13:45Z</time>
      </trkpt>
      <trkpt lat="51.234006848698" lon="4.467278276594">
        <ele>0.2</ele>
        <time>2020-09-06T12:13:54Z</time>
      </trkpt>
      <trkpt lat="51.2341542025" lon="4.468187628925">
        <ele>0.6</ele>
        <time>2020-09-06T12:14:03Z</time>
      </trkpt>
      <trkpt lat="51.234300718112" lon="4.469082312931">
        <ele>0</ele>
        <time>2020-09-06T12:14:12Z</time>
      </trkpt>
      <trkpt lat="51.234445473525" lon="4.469932740505">
        <ele>0.4</ele>
        <time>2020-09-06T12:14:20Z</time>
      </trkpt>
      <trkpt lat="51.234575895889" lon="4.470875955712">
        <ele>0</ele>
        <time>2020-09-06T12:14:29Z</time>
      </trkpt>
      <trkpt lat="51.234700199466" lon="4.471731831521">
        <ele>0</ele>
        <time>2020-09-06T12:14:37Z</time>
      </trkpt>
      <trkpt lat="51.234842691766" lon="4.47258184">
        <ele>0</ele>
        <time>2020-09-06T12:14:45Z</time>
      </trkpt>
      <trkpt lat="51.235034553457" lon="4.473485744096">
        <ele>0</ele>
        <time>2020-09-06T12:14:54Z</time>
      </trkpt>
      <trkpt lat="51.235205376579" lon="4.474348493063">
        <ele>0</ele>
        <time>2020-09-06T12:15:03Z</time>
      </trkpt>
      <trkpt lat="51.235367985439" lon="4.475216941722">
        <ele>0</ele>
        <time>2020-09-06T12:15:12Z</time>
      </trkpt>
      <trkpt lat="51.235564708632" lon="4.476123611845">
        <ele>0</ele>
        <time>2020-09-06T12:15:21Z</time>
      </trkpt>
      <trkpt lat="51.235759252531" lon="4.476999436576">
        <ele>0</ele>
        <time>2020-09-06T12:15:30Z</time>
      </trkpt>
      <trkpt lat="51.235994197188" lon="4.47785992243">
        <ele>1.2</ele>
        <time>2020-09-06T12:15:39Z</time>
      </trkpt>
      <trkpt lat="51.23619854791" lon="4.478743458509">
        <ele>11.8</ele>
        <time>2020-09-06T12:15:48Z</time>
      </trkpt>
      <trkpt lat="51.236191674752" lon="4.479659767817">
        <ele>12.8</ele>
        <time>2020-09-06T12:15:57Z</time>
      </trkpt>
      <trkpt lat="51.236081704224" lon="4.48056224699">
        <ele>2.2</ele>
        <time>2020-09-06T12:16:06Z</time>
      </trkpt>
      <trkpt lat="51.236030742272" lon="4.481441675938">
        <ele>0</ele>
        <time>2020-09-06T12:16:15Z</time>
      </trkpt>
      <trkpt lat="51.236004590744" lon="4.482303670534">
        <ele>0</ele>
        <time>2020-09-06T12:16:24Z</time>
      </trkpt>
      <trkpt lat="51.236004255468" lon="4.482948238644">
        <ele>0</ele>
        <time>2020-09-06T12:16:31Z</time>
      </trkpt>
      <trkpt lat="51.236271386621" lon="4.483107578563">
        <ele>0</ele>
        <time>2020-09-06T12:17:00Z</time>
      </trkpt>
      <trkpt lat="51.236292928104" lon="4.484034281427">
        <ele>0</ele>
        <time>2020-09-06T12:17:14Z</time>
      </trkpt>
      <trkpt lat="51.236310697732" lon="4.484967522173">
        <ele>0</ele>
        <time>2020-09-06T12:17:25Z</time>
      </trkpt>
      <trkpt lat="51.236327712989" lon="4.485840077963">
        <ele>0</ele>
        <time>2020-09-06T12:17:35Z</time>
      </trkpt>
      <trkpt lat="51.23633936383" lon="4.486731073933">
        <ele>0</ele>
        <time>2020-09-06T12:17:45Z</time>
      </trkpt>
      <trkpt lat="51.236367359376" lon="4.48768350923">
        <ele>0</ele>
        <time>2020-09-06T12:17:55Z</time>
      </trkpt>
      <trkpt lat="51.236387895031" lon="4.488610295913">
        <ele>0</ele>
        <time>2020-09-06T12:18:04Z</time>
      </trkpt>
      <trkpt lat="51.236390744877" lon="4.489479666581">
        <ele>0</ele>
        <time>2020-09-06T12:18:13Z</time>
      </trkpt>
      <trkpt lat="51.236357971648" lon="4.490329339784">
        <ele>0</ele>
        <time>2020-09-06T12:18:23Z</time>
      </trkpt>
      <trkpt lat="51.236382782072" lon="4.49060795414">
        <ele>1.6</ele>
        <time>2020-09-06T12:19:24Z</time>
      </trkpt>
      <trkpt lat="51.236853677214" lon="4.490763438385">
        <ele>1.2</ele>
        <time>2020-09-06T12:19:35Z</time>
      </trkpt>
      <trkpt lat="51.237185265178" lon="4.49069680228">
        <ele>1.2</ele>
        <time>2020-09-06T12:19:42Z</time>
      </trkpt>
      <trkpt lat="51.237414845419" lon="4.490562021328">
        <ele>0.4</ele>
        <time>2020-09-06T12:19:47Z</time>
      </trkpt>
      <trkpt lat="51.237658004338" lon="4.490473508464">
        <ele>0</ele>
        <time>2020-09-06T12:19:52Z</time>
      </trkpt>
      <trkpt lat="51.237818852999" lon="4.490321460798">
        <ele>0</ele>
        <time>2020-09-06T12:19:56Z</time>
      </trkpt>
      <trkpt lat="51.237901666171" lon="4.490275276529">
        <ele>0</ele>
        <time>2020-09-06T12:19:58Z</time>
      </trkpt>
      <trkpt lat="51.23846501367" lon="4.490178968498">
        <ele>1.4</ele>
        <time>2020-09-06T12:20:12Z</time>
      </trkpt>
      <trkpt lat="51.239000365623" lon="4.490326406119">
        <ele>5.4</ele>
        <time>2020-09-06T12:20:26Z</time>
      </trkpt>
      <trkpt lat="51.239531945721" lon="4.490577360205">
        <ele>6.8</ele>
        <time>2020-09-06T12:20:41Z</time>
      </trkpt>
      <trkpt lat="51.240080960171" lon="4.490849520498">
        <ele>7</ele>
        <time>2020-09-06T12:20:54Z</time>
      </trkpt>
      <trkpt lat="51.240621341264" lon="4.491106509552">
        <ele>5.8</ele>
        <time>2020-09-06T12:21:04Z</time>
      </trkpt>
      <trkpt lat="51.241150071516" lon="4.491358469466">
        <ele>3.8</ele>
        <time>2020-09-06T12:21:11Z</time>
      </trkpt>
      <trkpt lat="51.241602442659" lon="4.491782006873">
        <ele>1.6</ele>
        <time>2020-09-06T12:21:19Z</time>
      </trkpt>
      <trkpt lat="51.241790448676" lon="4.492181991141">
        <ele>0.6</ele>
        <time>2020-09-06T12:21:22Z</time>
      </trkpt>
      <trkpt lat="51.241881140834" lon="4.492550208008">
        <ele>0.2</ele>
        <time>2020-09-06T12:21:27Z</time>
      </trkpt>
      <trkpt lat="51.241867897432" lon="4.492635200474">
        <ele>0.8</ele>
        <time>2020-09-06T12:21:29Z</time>
      </trkpt>
      <trkpt lat="51.241741246923" lon="4.492156174889">
        <ele>1.2</ele>
        <time>2020-09-06T12:21:38Z</time>
      </trkpt>
      <trkpt lat="51.241678298854" lon="4.492007312345">
        <ele>0</ele>
        <time>2020-09-06T12:21:40Z</time>
      </trkpt>
      <trkpt lat="51.241593390207" lon="4.491887283537">
        <ele>0</ele>
        <time>2020-09-06T12:21:42Z</time>
      </trkpt>
      <trkpt lat="51.241435726668" lon="4.491754178965">
        <ele>0</ele>
        <time>2020-09-06T12:21:45Z</time>
      </trkpt>
      <trkpt lat="51.241312931833" lon="4.491707324144">
        <ele>0</ele>
        <time>2020-09-06T12:21:47Z</time>
      </trkpt>
      <trkpt lat="51.24119248393" lon="4.491693074914">
        <ele>0.4</ele>
        <time>2020-09-06T12:21:49Z</time>
      </trkpt>
      <trkpt lat="51.240636177227" lon="4.491723082116">
        <ele>0</ele>
        <time>2020-09-06T12:21:58Z</time>
      </trkpt>
      <trkpt lat="51.240388072987" lon="4.49173783426">
        <ele>0</ele>
        <time>2020-09-06T12:22:02Z</time>
      </trkpt>
      <trkpt lat="51.240289334205" lon="4.491824922201">
        <ele>0</ele>
        <time>2020-09-06T12:22:04Z</time>
      </trkpt>
      <trkpt lat="51.240222614281" lon="4.491988620708">
        <ele>0</ele>
        <time>2020-09-06T12:22:06Z</time>
      </trkpt>
      <trkpt lat="51.240043828354" lon="4.492895961383">
        <ele>0</ele>
        <time>2020-09-06T12:22:15Z</time>
      </trkpt>
      <trkpt lat="51.23989831857" lon="4.493749909355">
        <ele>0</ele>
        <time>2020-09-06T12:22:23Z</time>
      </trkpt>
      <trkpt lat="51.239866048255" lon="4.493956690828">
        <ele>0</ele>
        <time>2020-09-06T12:22:24Z</time>
      </trkpt>
      <trkpt lat="51.23963261234" lon="4.495095288124">
        <ele>2</ele>
        <time>2020-09-06T12:22:57Z</time>
      </trkpt>
      <trkpt lat="51.239466231625" lon="4.495944542232">
        <ele>0.8</ele>
        <time>2020-09-06T12:23:07Z</time>
      </trkpt>
      <trkpt lat="51.239294737951" lon="4.496834951469">
        <ele>0.2</ele>
        <time>2020-09-06T12:23:16Z</time>
      </trkpt>
      <trkpt lat="51.239140846267" lon="4.497679679351">
        <ele>0</ele>
        <time>2020-09-06T12:23:25Z</time>
      </trkpt>
      <trkpt lat="51.238977734493" lon="4.498547457458">
        <ele>0</ele>
        <time>2020-09-06T12:23:34Z</time>
      </trkpt>
      <trkpt lat="51.238820070954" lon="4.499390006046">
        <ele>0</ele>
        <time>2020-09-06T12:23:43Z</time>
      </trkpt>
      <trkpt lat="51.238822250248" lon="4.499778842387">
        <ele>0</ele>
        <time>2020-09-06T12:23:47Z</time>
      </trkpt>
      <trkpt lat="51.238870781449" lon="4.49996131635">
        <ele>0</ele>
        <time>2020-09-06T12:23:49Z</time>
      </trkpt>
      <trkpt lat="51.238955271001" lon="4.500119398984">
        <ele>0</ele>
        <time>2020-09-06T12:23:51Z</time>
      </trkpt>
      <trkpt lat="51.239065912081" lon="4.500232303177">
        <ele>0</ele>
        <time>2020-09-06T12:23:53Z</time>
      </trkpt>
      <trkpt lat="51.23961836311" lon="4.50053463831">
        <ele>0</ele>
        <time>2020-09-06T12:24:02Z</time>
      </trkpt>
      <trkpt lat="51.240155559081" lon="4.500814426132">
        <ele>0</ele>
        <time>2020-09-06T12:24:11Z</time>
      </trkpt>
      <trkpt lat="51.24072225934" lon="4.501059596707">
        <ele>1.4</ele>
        <time>2020-09-06T12:24:22Z</time>
      </trkpt>
      <trkpt lat="51.241028533966" lon="4.501280795048">
        <ele>3.6</ele>
        <time>2020-09-06T12:24:30Z</time>
      </trkpt>
      <trkpt lat="51.24093264503" lon="4.50182125996">
        <ele>2.6</ele>
        <time>2020-09-06T12:24:38Z</time>
      </trkpt>
      <trkpt lat="51.240873887911" lon="4.501963668441">
        <ele>2</ele>
        <time>2020-09-06T12:24:40Z</time>
      </trkpt>
      <trkpt lat="51.240778166613" lon="4.502004404475">
        <ele>2</ele>
        <time>2020-09-06T12:24:42Z</time>
      </trkpt>
      <trkpt lat="51.240243233755" lon="4.501678935298">
        <ele>0</ele>
        <time>2020-09-06T12:24:50Z</time>
      </trkpt>
      <trkpt lat="51.239708468535" lon="4.501382132219">
        <ele>0</ele>
        <time>2020-09-06T12:24:57Z</time>
      </trkpt>
      <trkpt lat="51.239180408835" lon="4.501137632196">
        <ele>0</ele>
        <time>2020-09-06T12:25:04Z</time>
      </trkpt>
      <trkpt lat="51.238890478914" lon="4.501020117958">
        <ele>0</ele>
        <time>2020-09-06T12:25:08Z</time>
      </trkpt>
      <trkpt lat="51.238747651338" lon="4.501038809595">
        <ele>0</ele>
        <time>2020-09-06T12:25:10Z</time>
      </trkpt>
      <trkpt lat="51.238615133499" lon="4.501118772921">
        <ele>0</ele>
        <time>2020-09-06T12:25:12Z</time>
      </trkpt>
      <trkpt lat="51.238498457451" lon="4.501256487538">
        <ele>0</ele>
        <time>2020-09-06T12:25:14Z</time>
      </trkpt>
      <trkpt lat="51.238407010922" lon="4.501439464415">
        <ele>0</ele>
        <time>2020-09-06T12:25:16Z</time>
      </trkpt>
      <trkpt lat="51.238339955722" lon="4.501648089906">
        <ele>0</ele>
        <time>2020-09-06T12:25:18Z</time>
      </trkpt>
      <trkpt lat="51.23819344011" lon="4.502537828591">
        <ele>0</ele>
        <time>2020-09-06T12:25:26Z</time>
      </trkpt>
      <trkpt lat="51.238046337765" lon="4.503416922263">
        <ele>0</ele>
        <time>2020-09-06T12:25:34Z</time>
      </trkpt>
      <trkpt lat="51.237866797467" lon="4.504290651519">
        <ele>0.6</ele>
        <time>2020-09-06T12:25:42Z</time>
      </trkpt>
      <trkpt lat="51.237670158093" lon="4.505118112687">
        <ele>1</ele>
        <time>2020-09-06T12:25:50Z</time>
      </trkpt>
      <trkpt lat="51.237455749091" lon="4.50591917087">
        <ele>0</ele>
        <time>2020-09-06T12:25:57Z</time>
      </trkpt>
      <trkpt lat="51.237240166623" lon="4.506711092782">
        <ele>0</ele>
        <time>2020-09-06T12:26:06Z</time>
      </trkpt>
      <trkpt lat="51.236979489533" lon="4.507469570913">
        <ele>0</ele>
        <time>2020-09-06T12:26:14Z</time>
      </trkpt>
      <trkpt lat="51.236738174632" lon="4.508252105097">
        <ele>0</ele>
        <time>2020-09-06T12:26:22Z</time>
      </trkpt>
      <trkpt lat="51.236512617703" lon="4.509120386118">
        <ele>0</ele>
        <time>2020-09-06T12:26:31Z</time>
      </trkpt>
      <trkpt lat="51.236256299201" lon="4.509968634398">
        <ele>0.4</ele>
        <time>2020-09-06T12:26:40Z</time>
      </trkpt>
      <trkpt lat="51.235982797804" lon="4.510820738352">
        <ele>1.2</ele>
        <time>2020-09-06T12:26:49Z</time>
      </trkpt>
      <trkpt lat="51.235726814578" lon="4.511591705514">
        <ele>1.6</ele>
        <time>2020-09-06T12:26:57Z</time>
      </trkpt>
      <trkpt lat="51.235479716166" lon="4.512370132567">
        <ele>0</ele>
        <time>2020-09-06T12:27:05Z</time>
      </trkpt>
      <trkpt lat="51.23523043846" lon="4.513213267888">
        <ele>0</ele>
        <time>2020-09-06T12:27:14Z</time>
      </trkpt>
      <trkpt lat="51.234826514699" lon="4.514475749666">
        <ele>0.8</ele>
        <time>2020-09-06T12:27:28Z</time>
      </trkpt>
      <trkpt lat="51.234568938912" lon="4.515275382926">
        <ele>0</ele>
        <time>2020-09-06T12:27:37Z</time>
      </trkpt>
      <trkpt lat="51.234311446944" lon="4.51607803367">
        <ele>0</ele>
        <time>2020-09-06T12:27:46Z</time>
      </trkpt>
      <trkpt lat="51.234159650735" lon="4.51647952668">
        <ele>0</ele>
        <time>2020-09-06T12:27:51Z</time>
      </trkpt>
      <trkpt lat="51.23392621482" lon="4.517313358092">
        <ele>0</ele>
        <time>2020-09-06T12:28:00Z</time>
      </trkpt>
      <trkpt lat="51.233738041165" lon="4.518215082894">
        <ele>0.8</ele>
        <time>2020-09-06T12:28:09Z</time>
      </trkpt>
      <trkpt lat="51.23355992579" lon="4.519102055552">
        <ele>0.4</ele>
        <time>2020-09-06T12:28:18Z</time>
      </trkpt>
      <trkpt lat="51.23332271802" lon="4.519963966329">
        <ele>0.4</ele>
        <time>2020-09-06T12:28:27Z</time>
      </trkpt>
      <trkpt lat="51.233053072297" lon="4.520817495206">
        <ele>0.2</ele>
        <time>2020-09-06T12:28:36Z</time>
      </trkpt>
      <trkpt lat="51.232773368294" lon="4.521667503685">
        <ele>0.2</ele>
        <time>2020-09-06T12:28:45Z</time>
      </trkpt>
      <trkpt lat="51.232531885755" lon="4.522436878286">
        <ele>0</ele>
        <time>2020-09-06T12:28:53Z</time>
      </trkpt>
      <trkpt lat="51.232277159814" lon="4.523224860705">
        <ele>0</ele>
        <time>2020-09-06T12:29:01Z</time>
      </trkpt>
      <trkpt lat="51.232029977583" lon="4.524010999106">
        <ele>0</ele>
        <time>2020-09-06T12:29:09Z</time>
      </trkpt>
      <trkpt lat="51.231786148112" lon="4.524780792802">
        <ele>0</ele>
        <time>2020-09-06T12:29:17Z</time>
      </trkpt>
      <trkpt lat="51.231549778532" lon="4.525554525991">
        <ele>0</ele>
        <time>2020-09-06T12:29:25Z</time>
      </trkpt>
      <trkpt lat="51.231268901063" lon="4.52641123999">
        <ele>0.4</ele>
        <time>2020-09-06T12:29:34Z</time>
      </trkpt>
      <trkpt lat="51.230993890924" lon="4.52725026818">
        <ele>0</ele>
        <time>2020-09-06T12:29:43Z</time>
      </trkpt>
      <trkpt lat="51.230821475241" lon="4.527813280403">
        <ele>0</ele>
        <time>2020-09-06T12:29:49Z</time>
      </trkpt>
      <trkpt lat="51.230401961146" lon="4.528477713616">
        <ele>0</ele>
        <time>2020-09-06T12:29:57Z</time>
      </trkpt>
      <trkpt lat="51.230370193745" lon="4.528570249792">
        <ele>0</ele>
        <time>2020-09-06T12:29:59Z</time>
      </trkpt>
      <trkpt lat="51.230098871642" lon="4.529374744554">
        <ele>0</ele>
        <time>2020-09-06T12:30:08Z</time>
      </trkpt>
      <trkpt lat="51.22980651097" lon="4.530147974829">
        <ele>0</ele>
        <time>2020-09-06T12:30:17Z</time>
      </trkpt>
      <trkpt lat="51.229556143617" lon="4.530974178712">
        <ele>0</ele>
        <time>2020-09-06T12:30:26Z</time>
      </trkpt>
      <trkpt lat="51.229414908602" lon="4.531411378616">
        <ele>0</ele>
        <time>2020-09-06T12:30:31Z</time>
      </trkpt>
      <trkpt lat="51.229309129024" lon="4.531652777336">
        <ele>0</ele>
        <time>2020-09-06T12:30:34Z</time>
      </trkpt>
      <trkpt lat="51.22903453798" lon="4.532398682617">
        <ele>0</ele>
        <time>2020-09-06T12:30:43Z</time>
      </trkpt>
      <trkpt lat="51.228785930826" lon="4.533162944259">
        <ele>0</ele>
        <time>2020-09-06T12:30:52Z</time>
      </trkpt>
      <trkpt lat="51.228622399957" lon="4.533656386712">
        <ele>0</ele>
        <time>2020-09-06T12:30:58Z</time>
      </trkpt>
      <trkpt lat="51.228581412466" lon="4.533824862902">
        <ele>0</ele>
        <time>2020-09-06T12:31:00Z</time>
      </trkpt>
      <trkpt lat="51.228378989581" lon="4.534387036935">
        <ele>0</ele>
        <time>2020-09-06T12:31:07Z</time>
      </trkpt>
      <trkpt lat="51.228216715997" lon="4.535024983344">
        <ele>0</ele>
        <time>2020-09-06T12:31:14Z</time>
      </trkpt>
      <trkpt lat="51.228193665772" lon="4.53533963987">
        <ele>0</ele>
        <time>2020-09-06T12:31:19Z</time>
      </trkpt>
      <trkpt lat="51.228115127369" lon="4.535421447214">
        <ele>0</ele>
        <time>2020-09-06T12:31:21Z</time>
      </trkpt>
      <trkpt lat="51.228026530686" lon="4.535468385854">
        <ele>0</ele>
        <time>2020-09-06T12:31:23Z</time>
      </trkpt>
      <trkpt lat="51.227965594273" lon="4.535586403006">
        <ele>0</ele>
        <time>2020-09-06T12:31:25Z</time>
      </trkpt>
      <trkpt lat="51.227729895245" lon="4.53643431601">
        <ele>0.6</ele>
        <time>2020-09-06T12:31:36Z</time>
      </trkpt>
      <trkpt lat="51.227708772857" lon="4.536678648395">
        <ele>0.2</ele>
        <time>2020-09-06T12:31:39Z</time>
      </trkpt>
      <trkpt lat="51.227661498941" lon="4.536814099899">
        <ele>0.6</ele>
        <time>2020-09-06T12:31:41Z</time>
      </trkpt>
      <trkpt lat="51.227531998586" lon="4.537056839723">
        <ele>2</ele>
        <time>2020-09-06T12:31:45Z</time>
      </trkpt>
      <trkpt lat="51.227293533531" lon="4.537747424464">
        <ele>4.2</ele>
        <time>2020-09-06T12:31:56Z</time>
      </trkpt>
      <trkpt lat="51.227093206121" lon="4.538072558365">
        <ele>4</ele>
        <time>2020-09-06T12:32:01Z</time>
      </trkpt>
      <trkpt lat="51.227027743482" lon="4.538238352347">
        <ele>5.2</ele>
        <time>2020-09-06T12:32:03Z</time>
      </trkpt>
      <trkpt lat="51.226788021142" lon="4.539018371961">
        <ele>5.8</ele>
        <time>2020-09-06T12:32:12Z</time>
      </trkpt>
      <trkpt lat="51.226548298802" lon="4.539855053219">
        <ele>2.8</ele>
        <time>2020-09-06T12:32:21Z</time>
      </trkpt>
      <trkpt lat="51.226316706905" lon="4.540711431942">
        <ele>1.8</ele>
        <time>2020-09-06T12:32:30Z</time>
      </trkpt>
      <trkpt lat="51.226058209109" lon="4.541542078232">
        <ele>2.6</ele>
        <time>2020-09-06T12:32:39Z</time>
      </trkpt>
      <trkpt lat="51.22579241906" lon="4.542360989862">
        <ele>2.8</ele>
        <time>2020-09-06T12:32:48Z</time>
      </trkpt>
      <trkpt lat="51.225535765282" lon="4.543193228713">
        <ele>3</ele>
        <time>2020-09-06T12:32:57Z</time>
      </trkpt>
      <trkpt lat="51.225476672887" lon="4.543367404595">
        <ele>3.2</ele>
        <time>2020-09-06T12:32:59Z</time>
      </trkpt>
      <trkpt lat="51.225449766988" lon="4.543553566594">
        <ele>2.8</ele>
        <time>2020-09-06T12:33:01Z</time>
      </trkpt>
      <trkpt lat="51.225413054266" lon="4.543736208195">
        <ele>2.2</ele>
        <time>2020-09-06T12:33:03Z</time>
      </trkpt>
      <trkpt lat="51.225161010533" lon="4.544526789003">
        <ele>2.4</ele>
        <time>2020-09-06T12:33:12Z</time>
      </trkpt>
      <trkpt lat="51.224891616267" lon="4.545364559908">
        <ele>2.8</ele>
        <time>2020-09-06T12:33:21Z</time>
      </trkpt>
      <trkpt lat="51.224637141783" lon="4.546191182886">
        <ele>1.8</ele>
        <time>2020-09-06T12:33:30Z</time>
      </trkpt>
      <trkpt lat="51.224379733634" lon="4.547007160851">
        <ele>1.2</ele>
        <time>2020-09-06T12:33:39Z</time>
      </trkpt>
      <trkpt lat="51.224111512834" lon="4.547835963123">
        <ele>1.8</ele>
        <time>2020-09-06T12:33:48Z</time>
      </trkpt>
      <trkpt lat="51.22383440722" lon="4.548728216378">
        <ele>1.8</ele>
        <time>2020-09-06T12:33:57Z</time>
      </trkpt>
      <trkpt lat="51.223580351831" lon="4.549538913746">
        <ele>2.8</ele>
        <time>2020-09-06T12:34:07Z</time>
      </trkpt>
      <trkpt lat="51.223327637546" lon="4.550358663566">
        <ele>3.6</ele>
        <time>2020-09-06T12:34:16Z</time>
      </trkpt>
      <trkpt lat="51.223070732311" lon="4.551132145298">
        <ele>2.4</ele>
        <time>2020-09-06T12:34:25Z</time>
      </trkpt>
      <trkpt lat="51.222807540651" lon="4.551901687537">
        <ele>1.8</ele>
        <time>2020-09-06T12:34:34Z</time>
      </trkpt>
      <trkpt lat="51.222543259344" lon="4.552664356618">
        <ele>1.8</ele>
        <time>2020-09-06T12:34:43Z</time>
      </trkpt>
      <trkpt lat="51.222306722126" lon="4.553493913261">
        <ele>5.4</ele>
        <time>2020-09-06T12:34:52Z</time>
      </trkpt>
      <trkpt lat="51.222035902937" lon="4.554339982247">
        <ele>5.8</ele>
        <time>2020-09-06T12:35:01Z</time>
      </trkpt>
      <trkpt lat="51.22179341457" lon="4.555176076772">
        <ele>6.4</ele>
        <time>2020-09-06T12:35:10Z</time>
      </trkpt>
      <trkpt lat="51.221569450202" lon="4.555983337561">
        <ele>6.2</ele>
        <time>2020-09-06T12:35:19Z</time>
      </trkpt>
      <trkpt lat="51.221309024569" lon="4.556757489845">
        <ele>5.6</ele>
        <time>2020-09-06T12:35:28Z</time>
      </trkpt>
      <trkpt lat="51.221046084366" lon="4.557540946038">
        <ele>5.8</ele>
        <time>2020-09-06T12:35:37Z</time>
      </trkpt>
      <trkpt lat="51.220795633194" lon="4.558327419715">
        <ele>5.2</ele>
        <time>2020-09-06T12:35:46Z</time>
      </trkpt>
      <trkpt lat="51.220539147054" lon="4.559142978585">
        <ele>5.4</ele>
        <time>2020-09-06T12:35:55Z</time>
      </trkpt>
      <trkpt lat="51.220285259303" lon="4.55995644198">
        <ele>6</ele>
        <time>2020-09-06T12:36:04Z</time>
      </trkpt>
      <trkpt lat="51.220033969941" lon="4.560741406915">
        <ele>5.8</ele>
        <time>2020-09-06T12:36:13Z</time>
      </trkpt>
      <trkpt lat="51.219800869302" lon="4.561517822312">
        <ele>5.6</ele>
        <time>2020-09-06T12:36:22Z</time>
      </trkpt>
      <trkpt lat="51.219566259921" lon="4.562341679263">
        <ele>5.4</ele>
        <time>2020-09-06T12:36:31Z</time>
      </trkpt>
      <trkpt lat="51.219293429076" lon="4.563143491817">
        <ele>4.4</ele>
        <time>2020-09-06T12:36:40Z</time>
      </trkpt>
      <trkpt lat="51.219043480818" lon="4.563965253293">
        <ele>4.8</ele>
        <time>2020-09-06T12:36:49Z</time>
      </trkpt>
      <trkpt lat="51.218779534787" lon="4.564780812163">
        <ele>5.4</ele>
        <time>2020-09-06T12:36:58Z</time>
      </trkpt>
      <trkpt lat="51.218522881009" lon="4.565633921945">
        <ele>4.2</ele>
        <time>2020-09-06T12:37:07Z</time>
      </trkpt>
      <trkpt lat="51.218251307449" lon="4.56645660543">
        <ele>4.4</ele>
        <time>2020-09-06T12:37:16Z</time>
      </trkpt>
      <trkpt lat="51.217974956206" lon="4.567272499576">
        <ele>4.8</ele>
        <time>2020-09-06T12:37:25Z</time>
      </trkpt>
      <trkpt lat="51.217716123134" lon="4.56811622163">
        <ele>4.8</ele>
        <time>2020-09-06T12:37:34Z</time>
      </trkpt>
      <trkpt lat="51.217451841827" lon="4.568936642002">
        <ele>5</ele>
        <time>2020-09-06T12:37:43Z</time>
      </trkpt>
      <trkpt lat="51.217187309063" lon="4.569763348799">
        <ele>4.8</ele>
        <time>2020-09-06T12:37:52Z</time>
      </trkpt>
      <trkpt lat="51.216921435195" lon="4.57059474946">
        <ele>5</ele>
        <time>2020-09-06T12:38:01Z</time>
      </trkpt>
      <trkpt lat="51.216653717309" lon="4.57142539575">
        <ele>4.8</ele>
        <time>2020-09-06T12:38:10Z</time>
      </trkpt>
      <trkpt lat="51.216398153178" lon="4.57224598376">
        <ele>4.6</ele>
        <time>2020-09-06T12:38:19Z</time>
      </trkpt>
      <trkpt lat="51.21613563207" lon="4.573080234267">
        <ele>4.4</ele>
        <time>2020-09-06T12:38:28Z</time>
      </trkpt>
      <trkpt lat="51.215864980519" lon="4.573922615217">
        <ele>4.6</ele>
        <time>2020-09-06T12:38:37Z</time>
      </trkpt>
      <trkpt lat="51.215600699212" lon="4.574767510737">
        <ele>4</ele>
        <time>2020-09-06T12:38:46Z</time>
      </trkpt>
      <trkpt lat="51.215327700729" lon="4.5755786272">
        <ele>4.2</ele>
        <time>2020-09-06T12:38:55Z</time>
      </trkpt>
      <trkpt lat="51.215097533755" lon="4.576433664819">
        <ele>4</ele>
        <time>2020-09-06T12:39:04Z</time>
      </trkpt>
      <trkpt lat="51.21476854418" lon="4.577701008099">
        <ele>3.2</ele>
        <time>2020-09-06T12:39:19Z</time>
      </trkpt>
      <trkpt lat="51.214596212316" lon="4.578147260455">
        <ele>3.8</ele>
        <time>2020-09-06T12:39:26Z</time>
      </trkpt>
      <trkpt lat="51.214502167398" lon="4.57827927538">
        <ele>3</ele>
        <time>2020-09-06T12:39:29Z</time>
      </trkpt>
      <trkpt lat="51.214218775359" lon="4.579101455951">
        <ele>3.2</ele>
        <time>2020-09-06T12:39:40Z</time>
      </trkpt>
      <trkpt lat="51.213964133237" lon="4.579872339294">
        <ele>2.8</ele>
        <time>2020-09-06T12:39:49Z</time>
      </trkpt>
      <trkpt lat="51.213710999857" lon="4.580661746636">
        <ele>3.4</ele>
        <time>2020-09-06T12:39:58Z</time>
      </trkpt>
      <trkpt lat="51.213453675527" lon="4.581416033817">
        <ele>3</ele>
        <time>2020-09-06T12:40:07Z</time>
      </trkpt>
      <trkpt lat="51.213198195215" lon="4.582205692616">
        <ele>2.8</ele>
        <time>2020-09-06T12:40:16Z</time>
      </trkpt>
      <trkpt lat="51.213053858897" lon="4.582644736538">
        <ele>2.8</ele>
        <time>2020-09-06T12:40:21Z</time>
      </trkpt>
      <trkpt lat="51.212792595074" lon="4.583434562975">
        <ele>2.8</ele>
        <time>2020-09-06T12:40:30Z</time>
      </trkpt>
      <trkpt lat="51.212530157785" lon="4.584238303366">
        <ele>2.2</ele>
        <time>2020-09-06T12:40:39Z</time>
      </trkpt>
      <trkpt lat="51.212260428243" lon="4.585066602724">
        <ele>2</ele>
        <time>2020-09-06T12:40:48Z</time>
      </trkpt>
      <trkpt lat="51.211994889651" lon="4.585890208218">
        <ele>2</ele>
        <time>2020-09-06T12:40:57Z</time>
      </trkpt>
      <trkpt lat="51.211731027439" lon="4.58670308488">
        <ele>2</ele>
        <time>2020-09-06T12:41:06Z</time>
      </trkpt>
      <trkpt lat="51.211468841607" lon="4.587506992909">
        <ele>2.2</ele>
        <time>2020-09-06T12:41:15Z</time>
      </trkpt>
      <trkpt lat="51.211211601096" lon="4.588294556233">
        <ele>2.4</ele>
        <time>2020-09-06T12:41:24Z</time>
      </trkpt>
      <trkpt lat="51.210955114956" lon="4.589079018254">
        <ele>3</ele>
        <time>2020-09-06T12:41:33Z</time>
      </trkpt>
      <trkpt lat="51.21068655888" lon="4.589887452509">
        <ele>4</ele>
        <time>2020-09-06T12:41:42Z</time>
      </trkpt>
      <trkpt lat="51.210411213465" lon="4.590731677477">
        <ele>4.4</ele>
        <time>2020-09-06T12:41:51Z</time>
      </trkpt>
      <trkpt lat="51.210163612139" lon="4.591506500313">
        <ele>4.2</ele>
        <time>2020-09-06T12:41:59Z</time>
      </trkpt>
      <trkpt lat="51.209887009439" lon="4.592340834639">
        <ele>4</ele>
        <time>2020-09-06T12:42:08Z</time>
      </trkpt>
      <trkpt lat="51.209616525526" lon="4.5931722353">
        <ele>4</ele>
        <time>2020-09-06T12:42:17Z</time>
      </trkpt>
      <trkpt lat="51.209348220907" lon="4.593979496089">
        <ele>5</ele>
        <time>2020-09-06T12:42:26Z</time>
      </trkpt>
      <trkpt lat="51.209090980396" lon="4.594772088553">
        <ele>4.8</ele>
        <time>2020-09-06T12:42:35Z</time>
      </trkpt>
      <trkpt lat="51.208841786509" lon="4.595567698501">
        <ele>4.8</ele>
        <time>2020-09-06T12:42:44Z</time>
      </trkpt>
      <trkpt lat="51.208581109419" lon="4.596338833301">
        <ele>5.6</ele>
        <time>2020-09-06T12:42:53Z</time>
      </trkpt>
      <trkpt lat="51.208318001578" lon="4.597131174308">
        <ele>5.4</ele>
        <time>2020-09-06T12:43:02Z</time>
      </trkpt>
      <trkpt lat="51.208126391344" lon="4.597742466275">
        <ele>4.6</ele>
        <time>2020-09-06T12:43:09Z</time>
      </trkpt>
      <trkpt lat="51.207868228824" lon="4.598514271627">
        <ele>4.6</ele>
        <time>2020-09-06T12:43:18Z</time>
      </trkpt>
      <trkpt lat="51.207584082414" lon="4.59929353687">
        <ele>4.6</ele>
        <time>2020-09-06T12:43:27Z</time>
      </trkpt>
      <trkpt lat="51.207303707859" lon="4.600087051343">
        <ele>4.6</ele>
        <time>2020-09-06T12:43:36Z</time>
      </trkpt>
      <trkpt lat="51.207061219492" lon="4.600919206375">
        <ele>2</ele>
        <time>2020-09-06T12:43:45Z</time>
      </trkpt>
      <trkpt lat="51.206806996465" lon="4.60173937529">
        <ele>1.6</ele>
        <time>2020-09-06T12:43:54Z</time>
      </trkpt>
      <trkpt lat="51.206534417077" lon="4.602550575572">
        <ele>2.8</ele>
        <time>2020-09-06T12:44:03Z</time>
      </trkpt>
      <trkpt lat="51.206268375571" lon="4.603356662895">
        <ele>3.4</ele>
        <time>2020-09-06T12:44:12Z</time>
      </trkpt>
      <trkpt lat="51.206008285214" lon="4.604129390256">
        <ele>2.8</ele>
        <time>2020-09-06T12:44:21Z</time>
      </trkpt>
      <trkpt lat="51.205786332502" lon="4.604970262464">
        <ele>2.8</ele>
        <time>2020-09-06T12:44:30Z</time>
      </trkpt>
      <trkpt lat="51.205549962922" lon="4.605760927091">
        <ele>1.2</ele>
        <time>2020-09-06T12:44:38Z</time>
      </trkpt>
      <trkpt lat="51.205301439587" lon="4.606553519555">
        <ele>0</ele>
        <time>2020-09-06T12:44:46Z</time>
      </trkpt>
      <trkpt lat="51.205211082705" lon="4.606827523866">
        <ele>0</ele>
        <time>2020-09-06T12:44:49Z</time>
      </trkpt>
      <trkpt lat="51.204886870813" lon="4.607608968403">
        <ele>0.2</ele>
        <time>2020-09-06T12:44:59Z</time>
      </trkpt>
      <trkpt lat="51.204632647786" lon="4.608440117607">
        <ele>1.6</ele>
        <time>2020-09-06T12:45:09Z</time>
      </trkpt>
      <trkpt lat="51.20430206565" lon="4.60941468112">
        <ele>2.4</ele>
        <time>2020-09-06T12:45:19Z</time>
      </trkpt>
      <trkpt lat="51.204066869536" lon="4.610277597725">
        <ele>2.8</ele>
        <time>2020-09-06T12:45:30Z</time>
      </trkpt>
      <trkpt lat="51.20397768612" lon="4.611206815159">
        <ele>3</ele>
        <time>2020-09-06T12:45:39Z</time>
      </trkpt>
      <trkpt lat="51.20403887399" lon="4.612113485282">
        <ele>2.8</ele>
        <time>2020-09-06T12:45:48Z</time>
      </trkpt>
      <trkpt lat="51.204249594956" lon="4.612954692766">
        <ele>2.6</ele>
        <time>2020-09-06T12:45:57Z</time>
      </trkpt>
      <trkpt lat="51.204570537907" lon="4.613673859786">
        <ele>2.6</ele>
        <time>2020-09-06T12:46:06Z</time>
      </trkpt>
      <trkpt lat="51.205014610969" lon="4.614253049076">
        <ele>2.6</ele>
        <time>2020-09-06T12:46:16Z</time>
      </trkpt>
      <trkpt lat="51.20552330848" lon="4.614619254287">
        <ele>2.8</ele>
        <time>2020-09-06T12:46:26Z</time>
      </trkpt>
      <trkpt lat="51.20608070483" lon="4.614770128487">
        <ele>3.2</ele>
        <time>2020-09-06T12:46:36Z</time>
      </trkpt>
      <trkpt lat="51.206640951026" lon="4.61470785097">
        <ele>3.4</ele>
        <time>2020-09-06T12:46:46Z</time>
      </trkpt>
      <trkpt lat="51.206811438872" lon="4.61471036554">
        <ele>3.4</ele>
        <time>2020-09-06T12:46:49Z</time>
      </trkpt>
      <trkpt lat="51.206910010016" lon="4.614797285843">
        <ele>3.4</ele>
        <time>2020-09-06T12:46:51Z</time>
      </trkpt>
      <trkpt lat="51.206950578412" lon="4.614974479209">
        <ele>3.2</ele>
        <time>2020-09-06T12:46:53Z</time>
      </trkpt>
      <trkpt lat="51.207000869812" lon="4.615915934217">
        <ele>2</ele>
        <time>2020-09-06T12:47:03Z</time>
      </trkpt>
      <trkpt lat="51.207024758227" lon="4.616188345967">
        <ele>1.8</ele>
        <time>2020-09-06T12:47:06Z</time>
      </trkpt>
      <trkpt lat="51.207035654697" lon="4.616369646464">
        <ele>1.6</ele>
        <time>2020-09-06T12:47:08Z</time>
      </trkpt>
      <trkpt lat="51.206988296962" lon="4.616529824573">
        <ele>1.2</ele>
        <time>2020-09-06T12:47:10Z</time>
      </trkpt>
      <trkpt lat="51.206886540696" lon="4.616619510903">
        <ele>2.6</ele>
        <time>2020-09-06T12:47:12Z</time>
      </trkpt>
      <trkpt lat="51.20633802916" lon="4.616693187804">
        <ele>5.2</ele>
        <time>2020-09-06T12:47:21Z</time>
      </trkpt>
      <trkpt lat="51.205760013336" lon="4.616832327344">
        <ele>5.2</ele>
        <time>2020-09-06T12:47:31Z</time>
      </trkpt>
      <trkpt lat="51.205180991684" lon="4.617059728291">
        <ele>6.8</ele>
        <time>2020-09-06T12:47:41Z</time>
      </trkpt>
      <trkpt lat="51.204609346104" lon="4.617354938809">
        <ele>6.6</ele>
        <time>2020-09-06T12:47:51Z</time>
      </trkpt>
      <trkpt lat="51.204086902277" lon="4.61768594004">
        <ele>6.2</ele>
        <time>2020-09-06T12:48:00Z</time>
      </trkpt>
      <trkpt lat="51.203565129002" lon="4.618082320091">
        <ele>6.2</ele>
        <time>2020-09-06T12:48:09Z</time>
      </trkpt>
      <trkpt lat="51.203051653808" lon="4.61852580642">
        <ele>6.2</ele>
        <time>2020-09-06T12:48:18Z</time>
      </trkpt>
      <trkpt lat="51.202557456984" lon="4.619039449252">
        <ele>6.4</ele>
        <time>2020-09-06T12:48:27Z</time>
      </trkpt>
      <trkpt lat="51.202088741136" lon="4.619604054036">
        <ele>6</ele>
        <time>2020-09-06T12:48:36Z</time>
      </trkpt>
      <trkpt lat="51.201639303658" lon="4.620212663795">
        <ele>6.2</ele>
        <time>2020-09-06T12:48:45Z</time>
      </trkpt>
      <trkpt lat="51.201224651065" lon="4.620869301841">
        <ele>6</ele>
        <time>2020-09-06T12:48:54Z</time>
      </trkpt>
      <trkpt lat="51.200826259358" lon="4.621591737802">
        <ele>5.8</ele>
        <time>2020-09-06T12:49:03Z</time>
      </trkpt>
      <trkpt lat="51.200486038037" lon="4.622288944244">
        <ele>6.4</ele>
        <time>2020-09-06T12:49:11Z</time>
      </trkpt>
      <trkpt lat="51.200156126453" lon="4.623008111264">
        <ele>6.6</ele>
        <time>2020-09-06T12:49:19Z</time>
      </trkpt>
      <trkpt lat="51.199876841545" lon="4.623757034029">
        <ele>5.4</ele>
        <time>2020-09-06T12:49:27Z</time>
      </trkpt>
      <trkpt lat="51.199626725649" lon="4.624518613463">
        <ele>4.8</ele>
        <time>2020-09-06T12:49:35Z</time>
      </trkpt>
      <trkpt lat="51.199387673861" lon="4.625390498701">
        <ele>3.6</ele>
        <time>2020-09-06T12:49:44Z</time>
      </trkpt>
      <trkpt lat="51.199163374217" lon="4.626236400049">
        <ele>2.4</ele>
        <time>2020-09-06T12:49:53Z</time>
      </trkpt>
      <trkpt lat="51.198972350716" lon="4.627088420184">
        <ele>2</ele>
        <time>2020-09-06T12:50:02Z</time>
      </trkpt>
      <trkpt lat="51.198762048845" lon="4.627962903811">
        <ele>2</ele>
        <time>2020-09-06T12:50:11Z</time>
      </trkpt>
      <trkpt lat="51.19855962596" lon="4.628827664434">
        <ele>2.6</ele>
        <time>2020-09-06T12:50:20Z</time>
      </trkpt>
      <trkpt lat="51.198378912196" lon="4.629711116694">
        <ele>2.6</ele>
        <time>2020-09-06T12:50:29Z</time>
      </trkpt>
      <trkpt lat="51.198221500114" lon="4.630619127921">
        <ele>2.4</ele>
        <time>2020-09-06T12:50:38Z</time>
      </trkpt>
      <trkpt lat="51.198041792178" lon="4.631527558243">
        <ele>2.4</ele>
        <time>2020-09-06T12:50:46Z</time>
      </trkpt>
      <trkpt lat="51.197884463915" lon="4.632462307731">
        <ele>1.8</ele>
        <time>2020-09-06T12:50:54Z</time>
      </trkpt>
      <trkpt lat="51.197743983271" lon="4.633373252623">
        <ele>1.6</ele>
        <time>2020-09-06T12:51:02Z</time>
      </trkpt>
      <trkpt lat="51.197546924802" lon="4.634796331605">
        <ele>1.8</ele>
        <time>2020-09-06T12:51:15Z</time>
      </trkpt>
      <trkpt lat="51.197435194075" lon="4.635714820207">
        <ele>1.2</ele>
        <time>2020-09-06T12:51:24Z</time>
      </trkpt>
      <trkpt lat="51.197323044253" lon="4.636599865028">
        <ele>2.2</ele>
        <time>2020-09-06T12:51:33Z</time>
      </trkpt>
      <trkpt lat="51.197236626864" lon="4.637505110228">
        <ele>2.4</ele>
        <time>2020-09-06T12:51:42Z</time>
      </trkpt>
      <trkpt lat="51.197142833403" lon="4.638431645454">
        <ele>1.8</ele>
        <time>2020-09-06T12:51:51Z</time>
      </trkpt>
      <trkpt lat="51.197061612792" lon="4.639320881225">
        <ele>1.4</ele>
        <time>2020-09-06T12:52:00Z</time>
      </trkpt>
      <trkpt lat="51.197025402984" lon="4.639872494064">
        <ele>1.8</ele>
        <time>2020-09-06T12:52:06Z</time>
      </trkpt>
      <trkpt lat="51.196972513195" lon="4.640114647155">
        <ele>2</ele>
        <time>2020-09-06T12:52:09Z</time>
      </trkpt>
      <trkpt lat="51.196931777161" lon="4.640245153338">
        <ele>2</ele>
        <time>2020-09-06T12:52:11Z</time>
      </trkpt>
      <trkpt lat="51.196909648945" lon="4.640360488282">
        <ele>2</ele>
        <time>2020-09-06T12:52:13Z</time>
      </trkpt>
      <trkpt lat="51.197847918831" lon="4.641727157077">
        <ele>0.8</ele>
        <time>2020-09-06T12:52:52Z</time>
      </trkpt>
      <trkpt lat="51.198320238896" lon="4.642082465818">
        <ele>2</ele>
        <time>2020-09-06T12:53:00Z</time>
      </trkpt>
      <trkpt lat="51.19923939805" lon="4.64314596129">
        <ele>4.2</ele>
        <time>2020-09-06T12:54:33Z</time>
      </trkpt>
      <trkpt lat="51.198794905893" lon="4.642798866811">
        <ele>7</ele>
        <time>2020-09-06T12:54:45Z</time>
      </trkpt>
      <trkpt lat="51.198697759672" lon="4.642764165745">
        <ele>7</ele>
        <time>2020-09-06T12:54:47Z</time>
      </trkpt>
      <trkpt lat="51.198542778341" lon="4.642683950962">
        <ele>6.6</ele>
        <time>2020-09-06T12:54:50Z</time>
      </trkpt>
      <trkpt lat="51.198089149913" lon="4.642560737032">
        <ele>6.8</ele>
        <time>2020-09-06T12:54:58Z</time>
      </trkpt>
      <trkpt lat="51.197982196869" lon="4.642586385646">
        <ele>6.8</ele>
        <time>2020-09-06T12:55:00Z</time>
      </trkpt>
      <trkpt lat="51.197881697888" lon="4.642648998439">
        <ele>6.8</ele>
        <time>2020-09-06T12:55:02Z</time>
      </trkpt>
      <trkpt lat="51.197795364318" lon="4.642759807157">
        <ele>7</ele>
        <time>2020-09-06T12:55:04Z</time>
      </trkpt>
      <trkpt lat="51.197600820419" lon="4.64328510083">
        <ele>6.8</ele>
        <time>2020-09-06T12:55:11Z</time>
      </trkpt>
      <trkpt lat="51.197507446053" lon="4.643368333097">
        <ele>6.8</ele>
        <time>2020-09-06T12:55:13Z</time>
      </trkpt>
      <trkpt lat="51.197392194928" lon="4.643384677802">
        <ele>6.6</ele>
        <time>2020-09-06T12:55:15Z</time>
      </trkpt>
      <trkpt lat="51.196849131627" lon="4.643463886757">
        <ele>6.4</ele>
        <time>2020-09-06T12:55:24Z</time>
      </trkpt>
      <trkpt lat="51.196630028761" lon="4.643499342194">
        <ele>7.2</ele>
        <time>2020-09-06T12:55:28Z</time>
      </trkpt>
      <trkpt lat="51.196552496186" lon="4.643585843402">
        <ele>7.8</ele>
        <time>2020-09-06T12:55:30Z</time>
      </trkpt>
      <trkpt lat="51.196527518124" lon="4.643728168064">
        <ele>8.8</ele>
        <time>2020-09-06T12:55:32Z</time>
      </trkpt>
      <trkpt lat="51.196486614452" lon="4.644649422693">
        <ele>8.4</ele>
        <time>2020-09-06T12:55:42Z</time>
      </trkpt>
      <trkpt lat="51.196386534566" lon="4.645546034536">
        <ele>6.6</ele>
        <time>2020-09-06T12:55:51Z</time>
      </trkpt>
      <trkpt lat="51.196282766644" lon="4.646424373837">
        <ele>3.4</ele>
        <time>2020-09-06T12:56:00Z</time>
      </trkpt>
      <trkpt lat="51.196154439755" lon="4.647292654858">
        <ele>2.2</ele>
        <time>2020-09-06T12:56:09Z</time>
      </trkpt>
      <trkpt lat="51.196007002134" lon="4.648166300295">
        <ele>1.2</ele>
        <time>2020-09-06T12:56:18Z</time>
      </trkpt>
      <trkpt lat="51.195854870649" lon="4.649014297118">
        <ele>0</ele>
        <time>2020-09-06T12:56:27Z</time>
      </trkpt>
      <trkpt lat="51.195701314241" lon="4.649857516258">
        <ele>0</ele>
        <time>2020-09-06T12:56:36Z</time>
      </trkpt>
      <trkpt lat="51.19549939427" lon="4.650697298819">
        <ele>1.6</ele>
        <time>2020-09-06T12:56:45Z</time>
      </trkpt>
      <trkpt lat="51.195294624453" lon="4.651536746104">
        <ele>4</ele>
        <time>2020-09-06T12:56:54Z</time>
      </trkpt>
      <trkpt lat="51.195072420284" lon="4.652427825893">
        <ele>5.4</ele>
        <time>2020-09-06T12:57:03Z</time>
      </trkpt>
      <trkpt lat="51.19486572263" lon="4.653254951785">
        <ele>6.6</ele>
        <time>2020-09-06T12:57:11Z</time>
      </trkpt>
      <trkpt lat="51.194638154045" lon="4.654064727144">
        <ele>6.2</ele>
        <time>2020-09-06T12:57:20Z</time>
      </trkpt>
      <trkpt lat="51.194380913534" lon="4.65492839812">
        <ele>5.4</ele>
        <time>2020-09-06T12:57:29Z</time>
      </trkpt>
      <trkpt lat="51.19413230638" lon="4.655785531214">
        <ele>6.2</ele>
        <time>2020-09-06T12:57:38Z</time>
      </trkpt>
      <trkpt lat="51.193746152247" lon="4.656482234742">
        <ele>4.6</ele>
        <time>2020-09-06T12:57:46Z</time>
      </trkpt>
      <trkpt lat="51.193461838199" lon="4.657221937417">
        <ele>3.6</ele>
        <time>2020-09-06T12:57:54Z</time>
      </trkpt>
      <trkpt lat="51.19334021683" lon="4.657719403182">
        <ele>3</ele>
        <time>2020-09-06T12:57:59Z</time>
      </trkpt>
      <trkpt lat="51.193236616546" lon="4.658641831277">
        <ele>4.2</ele>
        <time>2020-09-06T12:58:08Z</time>
      </trkpt>
      <trkpt lat="51.193181547463" lon="4.659021447528">
        <ele>4.2</ele>
        <time>2020-09-06T12:58:12Z</time>
      </trkpt>
      <trkpt lat="51.192954230335" lon="4.659812279793">
        <ele>3.2</ele>
        <time>2020-09-06T12:58:21Z</time>
      </trkpt>
      <trkpt lat="51.192733786365" lon="4.66063982478">
        <ele>3.6</ele>
        <time>2020-09-06T12:58:30Z</time>
      </trkpt>
      <trkpt lat="51.192514096766" lon="4.661486648137">
        <ele>3.4</ele>
        <time>2020-09-06T12:58:39Z</time>
      </trkpt>
      <trkpt lat="51.192311254786" lon="4.66232626306">
        <ele>2.2</ele>
        <time>2020-09-06T12:58:48Z</time>
      </trkpt>
      <trkpt lat="51.192111681747" lon="4.663140229369">
        <ele>1.8</ele>
        <time>2020-09-06T12:58:57Z</time>
      </trkpt>
      <trkpt lat="51.191914288002" lon="4.663954782411">
        <ele>2.2</ele>
        <time>2020-09-06T12:59:06Z</time>
      </trkpt>
      <trkpt lat="51.191736424084" lon="4.664772269118">
        <ele>2.4</ele>
        <time>2020-09-06T12:59:15Z</time>
      </trkpt>
      <trkpt lat="51.191544730031" lon="4.665649099677">
        <ele>1.4</ele>
        <time>2020-09-06T12:59:25Z</time>
      </trkpt>
      <trkpt lat="51.191351946331" lon="4.666519224716">
        <ele>3.2</ele>
        <time>2020-09-06T12:59:35Z</time>
      </trkpt>
      <trkpt lat="51.191176429345" lon="4.667384572072">
        <ele>3.8</ele>
        <time>2020-09-06T12:59:45Z</time>
      </trkpt>
      <trkpt lat="51.191003929843" lon="4.668252350179">
        <ele>3.8</ele>
        <time>2020-09-06T12:59:55Z</time>
      </trkpt>
      <trkpt lat="51.190941149412" lon="4.6686009534">
        <ele>3.8</ele>
        <time>2020-09-06T12:59:59Z</time>
      </trkpt>
      <trkpt lat="51.190921787223" lon="4.668781834802">
        <ele>3.8</ele>
        <time>2020-09-06T13:00:01Z</time>
      </trkpt>
      <trkpt lat="51.19086839452" lon="4.669048882136">
        <ele>3.8</ele>
        <time>2020-09-06T13:00:04Z</time>
      </trkpt>
      <trkpt lat="51.190819192767" lon="4.669215262851">
        <ele>3.8</ele>
        <time>2020-09-06T13:00:06Z</time>
      </trkpt>
      <trkpt lat="51.190652309138" lon="4.670098547473">
        <ele>4</ele>
        <time>2020-09-06T13:00:16Z</time>
      </trkpt>
      <trkpt lat="51.190477211247" lon="4.670991219823">
        <ele>4.4</ele>
        <time>2020-09-06T13:00:26Z</time>
      </trkpt>
      <trkpt lat="51.190296329845" lon="4.671879617404">
        <ele>3.4</ele>
        <time>2020-09-06T13:00:36Z</time>
      </trkpt>
      <trkpt lat="51.190123914162" lon="4.672777067437">
        <ele>3.2</ele>
        <time>2020-09-06T13:00:46Z</time>
      </trkpt>
      <trkpt lat="51.189943451855" lon="4.673677618773">
        <ele>3.2</ele>
        <time>2020-09-06T13:00:56Z</time>
      </trkpt>
      <trkpt lat="51.18976617467" lon="4.674578505385">
        <ele>3.2</ele>
        <time>2020-09-06T13:01:06Z</time>
      </trkpt>
      <trkpt lat="51.189594680996" lon="4.675454330116">
        <ele>3.4</ele>
        <time>2020-09-06T13:01:16Z</time>
      </trkpt>
      <trkpt lat="51.189423103503" lon="4.676335267806">
        <ele>3.2</ele>
        <time>2020-09-06T13:01:26Z</time>
      </trkpt>
      <trkpt lat="51.18924984963" lon="4.677203548827">
        <ele>2.4</ele>
        <time>2020-09-06T13:01:36Z</time>
      </trkpt>
      <trkpt lat="51.189074248825" lon="4.678089180381">
        <ele>2.4</ele>
        <time>2020-09-06T13:01:46Z</time>
      </trkpt>
      <trkpt lat="51.188920692417" lon="4.678884622691">
        <ele>2.2</ele>
        <time>2020-09-06T13:01:55Z</time>
      </trkpt>
      <trkpt lat="51.188888673559" lon="4.679059720582">
        <ele>2.2</ele>
        <time>2020-09-06T13:01:57Z</time>
      </trkpt>
      <trkpt lat="51.188711061098" lon="4.679924984119">
        <ele>2.2</ele>
        <time>2020-09-06T13:02:07Z</time>
      </trkpt>
      <trkpt lat="51.188537304311" lon="4.680817656469">
        <ele>2.2</ele>
        <time>2020-09-06T13:02:17Z</time>
      </trkpt>
      <trkpt lat="51.188364553352" lon="4.681687110956">
        <ele>3.2</ele>
        <time>2020-09-06T13:02:26Z</time>
      </trkpt>
      <trkpt lat="51.18819540661" lon="4.68257525708">
        <ele>2.2</ele>
        <time>2020-09-06T13:02:35Z</time>
      </trkpt>
      <trkpt lat="51.188014022294" lon="4.683462229738">
        <ele>1.6</ele>
        <time>2020-09-06T13:02:44Z</time>
      </trkpt>
      <trkpt lat="51.187852754538" lon="4.684346687826">
        <ele>3.4</ele>
        <time>2020-09-06T13:02:53Z</time>
      </trkpt>
      <trkpt lat="51.187669945299" lon="4.685254782872">
        <ele>4</ele>
        <time>2020-09-06T13:03:02Z</time>
      </trkpt>
      <trkpt lat="51.18748713606" lon="4.686170756904">
        <ele>4.2</ele>
        <time>2020-09-06T13:03:11Z</time>
      </trkpt>
      <trkpt lat="51.187306841391" lon="4.687082037072">
        <ele>4.2</ele>
        <time>2020-09-06T13:03:20Z</time>
      </trkpt>
      <trkpt lat="51.187139371029" lon="4.687953251758">
        <ele>2.4</ele>
        <time>2020-09-06T13:03:29Z</time>
      </trkpt>
      <trkpt lat="51.186966452432" lon="4.688820191675">
        <ele>3.6</ele>
        <time>2020-09-06T13:03:38Z</time>
      </trkpt>
      <trkpt lat="51.186811135825" lon="4.689705404134">
        <ele>2.4</ele>
        <time>2020-09-06T13:03:47Z</time>
      </trkpt>
      <trkpt lat="51.186652717915" lon="4.690598327941">
        <ele>3.8</ele>
        <time>2020-09-06T13:03:55Z</time>
      </trkpt>
      <trkpt lat="51.186511734357" lon="4.691495945612">
        <ele>4.4</ele>
        <time>2020-09-06T13:04:05Z</time>
      </trkpt>
      <trkpt lat="51.186379635613" lon="4.692364142814">
        <ele>3.4</ele>
        <time>2020-09-06T13:04:14Z</time>
      </trkpt>
      <trkpt lat="51.186252901285" lon="4.693234770767">
        <ele>2.8</ele>
        <time>2020-09-06T13:04:23Z</time>
      </trkpt>
      <trkpt lat="51.186127424242" lon="4.694142195261">
        <ele>1.6</ele>
        <time>2020-09-06T13:04:32Z</time>
      </trkpt>
      <trkpt lat="51.186011418746" lon="4.695065461546">
        <ele>2.4</ele>
        <time>2020-09-06T13:04:41Z</time>
      </trkpt>
      <trkpt lat="51.185902286408" lon="4.695986883813">
        <ele>1.6</ele>
        <time>2020-09-06T13:04:50Z</time>
      </trkpt>
      <trkpt lat="51.185798769943" lon="4.696904701863">
        <ele>1.6</ele>
        <time>2020-09-06T13:04:59Z</time>
      </trkpt>
      <trkpt lat="51.185702881007" lon="4.697823441922">
        <ele>2.4</ele>
        <time>2020-09-06T13:05:08Z</time>
      </trkpt>
      <trkpt lat="51.18560539951" lon="4.698739918868">
        <ele>1.8</ele>
        <time>2020-09-06T13:05:17Z</time>
      </trkpt>
      <trkpt lat="51.185509426755" lon="4.69966008385">
        <ele>2</ele>
        <time>2020-09-06T13:05:26Z</time>
      </trkpt>
      <trkpt lat="51.185374813441" lon="4.700776301473">
        <ele>2.8</ele>
        <time>2020-09-06T13:05:37Z</time>
      </trkpt>
      <trkpt lat="51.185275236469" lon="4.701657155344">
        <ele>4.6</ele>
        <time>2020-09-06T13:05:46Z</time>
      </trkpt>
      <trkpt lat="51.185185550139" lon="4.702511857687">
        <ele>4.8</ele>
        <time>2020-09-06T13:05:55Z</time>
      </trkpt>
      <trkpt lat="51.18519887736" lon="4.702623169319">
        <ele>3.8</ele>
        <time>2020-09-06T13:08:35Z</time>
      </trkpt>
      <trkpt lat="51.185293760468" lon="4.701774669582">
        <ele>3.4</ele>
        <time>2020-09-06T13:08:46Z</time>
      </trkpt>
      <trkpt lat="51.185396941657" lon="4.700875124074">
        <ele>3.8</ele>
        <time>2020-09-06T13:08:56Z</time>
      </trkpt>
      <trkpt lat="51.185495931896" lon="4.699950600504">
        <ele>3.8</ele>
        <time>2020-09-06T13:09:06Z</time>
      </trkpt>
      <trkpt lat="51.185599448361" lon="4.699041331992">
        <ele>4</ele>
        <time>2020-09-06T13:09:16Z</time>
      </trkpt>
      <trkpt lat="51.185690727252" lon="4.698149078737">
        <ele>4</ele>
        <time>2020-09-06T13:09:26Z</time>
      </trkpt>
      <trkpt lat="51.185787873473" lon="4.697293370566">
        <ele>4.2</ele>
        <time>2020-09-06T13:09:36Z</time>
      </trkpt>
      <trkpt lat="51.185898598372" lon="4.696354513947">
        <ele>4.4</ele>
        <time>2020-09-06T13:09:46Z</time>
      </trkpt>
      <trkpt lat="51.185996247507" lon="4.695420435011">
        <ele>5</ele>
        <time>2020-09-06T13:09:55Z</time>
      </trkpt>
      <trkpt lat="51.186105966578" lon="4.694521476236">
        <ele>4.8</ele>
        <time>2020-09-06T13:10:04Z</time>
      </trkpt>
      <trkpt lat="51.186221385341" lon="4.693639197442">
        <ele>4.6</ele>
        <time>2020-09-06T13:10:13Z</time>
      </trkpt>
      <trkpt lat="51.186321632865" lon="4.692790110972">
        <ele>4.6</ele>
        <time>2020-09-06T13:10:22Z</time>
      </trkpt>
      <trkpt lat="51.186401344734" lon="4.692405968495">
        <ele>4.6</ele>
        <time>2020-09-06T13:10:26Z</time>
      </trkpt>
      <trkpt lat="51.186536209505" lon="4.691534083257">
        <ele>4</ele>
        <time>2020-09-06T13:10:35Z</time>
      </trkpt>
      <trkpt lat="51.186685994058" lon="4.690621713442">
        <ele>4.2</ele>
        <time>2020-09-06T13:10:45Z</time>
      </trkpt>
      <trkpt lat="51.186826893797" lon="4.689779667768">
        <ele>4.2</ele>
        <time>2020-09-06T13:10:55Z</time>
      </trkpt>
      <trkpt lat="51.186910880435" lon="4.689281363813">
        <ele>4.2</ele>
        <time>2020-09-06T13:11:01Z</time>
      </trkpt>
      <trkpt lat="51.187065945585" lon="4.688448202953">
        <ele>4.2</ele>
        <time>2020-09-06T13:11:11Z</time>
      </trkpt>
      <trkpt lat="51.187224195857" lon="4.687611018781">
        <ele>4</ele>
        <time>2020-09-06T13:11:21Z</time>
      </trkpt>
      <trkpt lat="51.187386469441" lon="4.68678716183">
        <ele>4.2</ele>
        <time>2020-09-06T13:11:31Z</time>
      </trkpt>
      <trkpt lat="51.187551089957" lon="4.685949223287">
        <ele>4</ele>
        <time>2020-09-06T13:11:41Z</time>
      </trkpt>
      <trkpt lat="51.187722080717" lon="4.685122013576">
        <ele>3.8</ele>
        <time>2020-09-06T13:11:51Z</time>
      </trkpt>
      <trkpt lat="51.187887623242" lon="4.684277453332">
        <ele>3.8</ele>
        <time>2020-09-06T13:12:01Z</time>
      </trkpt>
      <trkpt lat="51.188055345061" lon="4.683453261105">
        <ele>4</ele>
        <time>2020-09-06T13:12:11Z</time>
      </trkpt>
      <trkpt lat="51.188221725776" lon="4.682588332844">
        <ele>4.8</ele>
        <time>2020-09-06T13:12:21Z</time>
      </trkpt>
      <trkpt lat="51.188399422056" lon="4.681733798139">
        <ele>3.8</ele>
        <time>2020-09-06T13:12:31Z</time>
      </trkpt>
      <trkpt lat="51.188568065884" lon="4.680832324794">
        <ele>3.4</ele>
        <time>2020-09-06T13:12:42Z</time>
      </trkpt>
      <trkpt lat="51.188752551503" lon="4.679937054055">
        <ele>4.4</ele>
        <time>2020-09-06T13:12:53Z</time>
      </trkpt>
      <trkpt lat="51.188918261666" lon="4.679118226244">
        <ele>3.6</ele>
        <time>2020-09-06T13:13:03Z</time>
      </trkpt>
      <trkpt lat="51.18908724077" lon="4.67821415451">
        <ele>4</ele>
        <time>2020-09-06T13:13:14Z</time>
      </trkpt>
      <trkpt lat="51.189263931222" lon="4.677338916512">
        <ele>4</ele>
        <time>2020-09-06T13:13:24Z</time>
      </trkpt>
      <trkpt lat="51.189443890615" lon="4.676453033501">
        <ele>3.8</ele>
        <time>2020-09-06T13:13:34Z</time>
      </trkpt>
      <trkpt lat="51.189608846407" lon="4.675580729168">
        <ele>4.8</ele>
        <time>2020-09-06T13:13:44Z</time>
      </trkpt>
      <trkpt lat="51.189775310941" lon="4.674707838102">
        <ele>6.4</ele>
        <time>2020-09-06T13:13:54Z</time>
      </trkpt>
      <trkpt lat="51.189964658062" lon="4.673821284539">
        <ele>4.2</ele>
        <time>2020-09-06T13:14:04Z</time>
      </trkpt>
      <trkpt lat="51.190133972442" lon="4.672965241092">
        <ele>3.6</ele>
        <time>2020-09-06T13:14:14Z</time>
      </trkpt>
      <trkpt lat="51.190304208831" lon="4.67209704389">
        <ele>3.6</ele>
        <time>2020-09-06T13:14:24Z</time>
      </trkpt>
      <trkpt lat="51.19047193065" lon="4.671223985186">
        <ele>3.6</ele>
        <time>2020-09-06T13:14:34Z</time>
      </trkpt>
      <trkpt lat="51.190633617501" lon="4.670377161829">
        <ele>4.2</ele>
        <time>2020-09-06T13:14:44Z</time>
      </trkpt>
      <trkpt lat="51.190801423139" lon="4.669541821675">
        <ele>4</ele>
        <time>2020-09-06T13:14:54Z</time>
      </trkpt>
      <trkpt lat="51.190966881845" lon="4.668706984435">
        <ele>3.6</ele>
        <time>2020-09-06T13:15:04Z</time>
      </trkpt>
      <trkpt lat="51.19101759234" lon="4.668451168847">
        <ele>3.4</ele>
        <time>2020-09-06T13:15:07Z</time>
      </trkpt>
      <trkpt lat="51.191181626123" lon="4.667586492043">
        <ele>3.2</ele>
        <time>2020-09-06T13:15:17Z</time>
      </trkpt>
      <trkpt lat="51.191354125625" lon="4.666720809411">
        <ele>3</ele>
        <time>2020-09-06T13:15:27Z</time>
      </trkpt>
      <trkpt lat="51.191533582104" lon="4.665852276933">
        <ele>2.8</ele>
        <time>2020-09-06T13:15:37Z</time>
      </trkpt>
      <trkpt lat="51.191721588121" lon="4.664954072529">
        <ele>3.6</ele>
        <time>2020-09-06T13:15:47Z</time>
      </trkpt>
      <trkpt lat="51.191917976038" lon="4.664073302477">
        <ele>4</ele>
        <time>2020-09-06T13:15:57Z</time>
      </trkpt>
      <trkpt lat="51.192129116099" lon="4.663188509113">
        <ele>4.2</ele>
        <time>2020-09-06T13:16:07Z</time>
      </trkpt>
      <trkpt lat="51.192344698567" lon="4.662310672726">
        <ele>3.8</ele>
        <time>2020-09-06T13:16:17Z</time>
      </trkpt>
      <trkpt lat="51.192568662935" lon="4.661449264863">
        <ele>3.6</ele>
        <time>2020-09-06T13:16:27Z</time>
      </trkpt>
      <trkpt lat="51.192772259286" lon="4.660590120113">
        <ele>3.8</ele>
        <time>2020-09-06T13:16:37Z</time>
      </trkpt>
      <trkpt lat="51.193002510079" lon="4.659764670601">
        <ele>3.4</ele>
        <time>2020-09-06T13:16:47Z</time>
      </trkpt>
      <trkpt lat="51.193233012329" lon="4.658935113958">
        <ele>3.6</ele>
        <time>2020-09-06T13:16:57Z</time>
      </trkpt>
      <trkpt lat="51.193266288472" lon="4.658765045207">
        <ele>3.4</ele>
        <time>2020-09-06T13:16:59Z</time>
      </trkpt>
      <trkpt lat="51.193365613987" lon="4.657839767266">
        <ele>3.2</ele>
        <time>2020-09-06T13:17:09Z</time>
      </trkpt>
      <trkpt lat="51.193394196266" lon="4.657561320548">
        <ele>3.2</ele>
        <time>2020-09-06T13:17:12Z</time>
      </trkpt>
      <trkpt lat="51.193611287476" lon="4.656828742488">
        <ele>3.2</ele>
        <time>2020-09-06T13:17:21Z</time>
      </trkpt>
      <trkpt lat="51.1939294644" lon="4.656132709512">
        <ele>3.2</ele>
        <time>2020-09-06T13:17:31Z</time>
      </trkpt>
      <trkpt lat="51.19429407705" lon="4.655393174475">
        <ele>3.8</ele>
        <time>2020-09-06T13:17:42Z</time>
      </trkpt>
      <trkpt lat="51.194534972856" lon="4.654547524584">
        <ele>4</ele>
        <time>2020-09-06T13:17:51Z</time>
      </trkpt>
      <trkpt lat="51.194763714907" lon="4.653756105586">
        <ele>3.4</ele>
        <time>2020-09-06T13:17:59Z</time>
      </trkpt>
      <trkpt lat="51.194989020379" lon="4.652913976093">
        <ele>3.8</ele>
        <time>2020-09-06T13:18:08Z</time>
      </trkpt>
      <trkpt lat="51.19518926397" lon="4.652116438308">
        <ele>3.6</ele>
        <time>2020-09-06T13:18:17Z</time>
      </trkpt>
      <trkpt lat="51.1953795331" lon="4.651300292705">
        <ele>3.8</ele>
        <time>2020-09-06T13:18:26Z</time>
      </trkpt>
      <trkpt lat="51.195554798629" lon="4.650483057455">
        <ele>3.8</ele>
        <time>2020-09-06T13:18:35Z</time>
      </trkpt>
      <trkpt lat="51.195711372521" lon="4.649654925735">
        <ele>3.2</ele>
        <time>2020-09-06T13:18:44Z</time>
      </trkpt>
      <trkpt lat="51.195889236439" lon="4.648828554214">
        <ele>3.4</ele>
        <time>2020-09-06T13:18:53Z</time>
      </trkpt>
      <trkpt lat="51.19604924691" lon="4.647997991743">
        <ele>3.6</ele>
        <time>2020-09-06T13:19:02Z</time>
      </trkpt>
      <trkpt lat="51.196219064204" lon="4.647087549765">
        <ele>3.6</ele>
        <time>2020-09-06T13:19:12Z</time>
      </trkpt>
      <trkpt lat="51.196350240939" lon="4.646170821362">
        <ele>3.4</ele>
        <time>2020-09-06T13:19:22Z</time>
      </trkpt>
      <trkpt lat="51.196464653874" lon="4.645229282535">
        <ele>4.8</ele>
        <time>2020-09-06T13:19:31Z</time>
      </trkpt>
      <trkpt lat="51.19658317394" lon="4.644304004594">
        <ele>4.6</ele>
        <time>2020-09-06T13:19:42Z</time>
      </trkpt>
      <trkpt lat="51.196613013504" lon="4.644026815161">
        <ele>4.6</ele>
        <time>2020-09-06T13:19:45Z</time>
      </trkpt>
      <trkpt lat="51.199224478268" lon="4.642684370057">
        <ele>2.8</ele>
        <time>2020-09-06T13:21:37Z</time>
      </trkpt>
      <trkpt lat="51.199133367015" lon="4.642564508887">
        <ele>3.2</ele>
        <time>2020-09-06T13:21:40Z</time>
      </trkpt>
      <trkpt lat="51.199001016814" lon="4.6424745711">
        <ele>3.8</ele>
        <time>2020-09-06T13:21:42Z</time>
      </trkpt>
      <trkpt lat="51.198467760336" lon="4.642147090267">
        <ele>4.2</ele>
        <time>2020-09-06T13:21:54Z</time>
      </trkpt>
      <trkpt lat="51.197946741432" lon="4.64175875684">
        <ele>4.8</ele>
        <time>2020-09-06T13:22:02Z</time>
      </trkpt>
      <trkpt lat="51.197481965077" lon="4.641249891691">
        <ele>5.2</ele>
        <time>2020-09-06T13:22:11Z</time>
      </trkpt>
      <trkpt lat="51.197109305803" lon="4.640741445637">
        <ele>5.8</ele>
        <time>2020-09-06T13:22:19Z</time>
      </trkpt>
      <trkpt lat="51.196968573702" lon="4.640022446255">
        <ele>5.8</ele>
        <time>2020-09-06T13:22:36Z</time>
      </trkpt>
      <trkpt lat="51.197004112958" lon="4.639870147132">
        <ele>5.6</ele>
        <time>2020-09-06T13:22:38Z</time>
      </trkpt>
      <trkpt lat="51.197117436246" lon="4.638951407073">
        <ele>4.2</ele>
        <time>2020-09-06T13:22:48Z</time>
      </trkpt>
      <trkpt lat="51.197219527788" lon="4.638056890705">
        <ele>4.4</ele>
        <time>2020-09-06T13:22:57Z</time>
      </trkpt>
      <trkpt lat="51.197332431981" lon="4.636808155243">
        <ele>4.4</ele>
        <time>2020-09-06T13:23:10Z</time>
      </trkpt>
      <trkpt lat="51.197439887939" lon="4.63593836548">
        <ele>5.8</ele>
        <time>2020-09-06T13:23:19Z</time>
      </trkpt>
      <trkpt lat="51.197545499879" lon="4.635036640678">
        <ele>7.6</ele>
        <time>2020-09-06T13:23:28Z</time>
      </trkpt>
      <trkpt lat="51.197655889502" lon="4.634136424618">
        <ele>8.2</ele>
        <time>2020-09-06T13:23:38Z</time>
      </trkpt>
      <trkpt lat="51.197798381802" lon="4.63324526101">
        <ele>5.6</ele>
        <time>2020-09-06T13:23:49Z</time>
      </trkpt>
      <trkpt lat="51.197945819423" lon="4.632366586433">
        <ele>5</ele>
        <time>2020-09-06T13:23:59Z</time>
      </trkpt>
      <trkpt lat="51.198086383886" lon="4.631503753647">
        <ele>4.4</ele>
        <time>2020-09-06T13:24:08Z</time>
      </trkpt>
      <trkpt lat="51.19823692281" lon="4.630673442633">
        <ele>4.6</ele>
        <time>2020-09-06T13:24:17Z</time>
      </trkpt>
      <trkpt lat="51.198409170855" lon="4.629771717831">
        <ele>4.8</ele>
        <time>2020-09-06T13:24:27Z</time>
      </trkpt>
      <trkpt lat="51.198577311769" lon="4.628890612503">
        <ele>4</ele>
        <time>2020-09-06T13:24:37Z</time>
      </trkpt>
      <trkpt lat="51.198766239795" lon="4.628053595969">
        <ele>3.2</ele>
        <time>2020-09-06T13:24:47Z</time>
      </trkpt>
      <trkpt lat="51.198977463675" lon="4.62722035129">
        <ele>3.8</ele>
        <time>2020-09-06T13:24:56Z</time>
      </trkpt>
      <trkpt lat="51.199189441926" lon="4.626345951482">
        <ele>6</ele>
        <time>2020-09-06T13:25:04Z</time>
      </trkpt>
      <trkpt lat="51.199391613354" lon="4.625505666007">
        <ele>5.6</ele>
        <time>2020-09-06T13:25:12Z</time>
      </trkpt>
      <trkpt lat="51.19964172925" lon="4.624650125474">
        <ele>4</ele>
        <time>2020-09-06T13:25:21Z</time>
      </trkpt>
      <trkpt lat="51.199894946449" lon="4.623835404794">
        <ele>5.6</ele>
        <time>2020-09-06T13:25:30Z</time>
      </trkpt>
      <trkpt lat="51.200013969429" lon="4.623493004179">
        <ele>6.4</ele>
        <time>2020-09-06T13:25:34Z</time>
      </trkpt>
      <trkpt lat="51.20031311944" lon="4.622754139694">
        <ele>7.6</ele>
        <time>2020-09-06T13:25:43Z</time>
      </trkpt>
      <trkpt lat="51.200656022969" lon="4.621984765093">
        <ele>7.6</ele>
        <time>2020-09-06T13:25:53Z</time>
      </trkpt>
      <trkpt lat="51.201021725266" lon="4.62130440627">
        <ele>7</ele>
        <time>2020-09-06T13:26:03Z</time>
      </trkpt>
      <trkpt lat="51.201417099489" lon="4.620620191773">
        <ele>6.8</ele>
        <time>2020-09-06T13:26:14Z</time>
      </trkpt>
      <trkpt lat="51.201845079303" lon="4.619975791301">
        <ele>6.6</ele>
        <time>2020-09-06T13:26:25Z</time>
      </trkpt>
      <trkpt lat="51.202299797378" lon="4.619374473795">
        <ele>7.2</ele>
        <time>2020-09-06T13:26:36Z</time>
      </trkpt>
      <trkpt lat="51.202757030023" lon="4.618864602818">
        <ele>7.4</ele>
        <time>2020-09-06T13:26:45Z</time>
      </trkpt>
      <trkpt lat="51.203219627084" lon="4.618399826463">
        <ele>7.4</ele>
        <time>2020-09-06T13:26:54Z</time>
      </trkpt>
      <trkpt lat="51.203711560795" lon="4.617978216893">
        <ele>6.8</ele>
        <time>2020-09-06T13:27:04Z</time>
      </trkpt>
      <trkpt lat="51.204225706541" lon="4.617612514596">
        <ele>5.2</ele>
        <time>2020-09-06T13:27:14Z</time>
      </trkpt>
      <trkpt lat="51.20477145205" lon="4.61729450531">
        <ele>5</ele>
        <time>2020-09-06T13:27:24Z</time>
      </trkpt>
      <trkpt lat="51.205306049632" lon="4.617018154067">
        <ele>2.4</ele>
        <time>2020-09-06T13:27:34Z</time>
      </trkpt>
      <trkpt lat="51.205855064082" lon="4.616815228268">
        <ele>3.6</ele>
        <time>2020-09-06T13:27:44Z</time>
      </trkpt>
      <trkpt lat="51.20641262807" lon="4.616662007136">
        <ele>4.6</ele>
        <time>2020-09-06T13:27:54Z</time>
      </trkpt>
      <trkpt lat="51.206891150741" lon="4.616567710761">
        <ele>3</ele>
        <time>2020-09-06T13:28:03Z</time>
      </trkpt>
      <trkpt lat="51.206999193432" lon="4.616485568141">
        <ele>2.4</ele>
        <time>2020-09-06T13:28:05Z</time>
      </trkpt>
      <trkpt lat="51.207045712977" lon="4.616334107208">
        <ele>1.8</ele>
        <time>2020-09-06T13:28:07Z</time>
      </trkpt>
      <trkpt lat="51.207040516199" lon="4.616157416756">
        <ele>1.6</ele>
        <time>2020-09-06T13:28:09Z</time>
      </trkpt>
      <trkpt lat="51.206981088528" lon="4.615273964496">
        <ele>4.8</ele>
        <time>2020-09-06T13:28:19Z</time>
      </trkpt>
      <trkpt lat="51.206955104638" lon="4.614831567814">
        <ele>5.6</ele>
        <time>2020-09-06T13:28:24Z</time>
      </trkpt>
      <trkpt lat="51.206891988931" lon="4.61468689622">
        <ele>6.2</ele>
        <time>2020-09-06T13:28:26Z</time>
      </trkpt>
      <trkpt lat="51.206787718095" lon="4.614625624531">
        <ele>6.4</ele>
        <time>2020-09-06T13:28:28Z</time>
      </trkpt>
      <trkpt lat="51.206238116912" lon="4.614693937016">
        <ele>6.4</ele>
        <time>2020-09-06T13:28:38Z</time>
      </trkpt>
      <trkpt lat="51.20568591734" lon="4.614645908729">
        <ele>8.4</ele>
        <time>2020-09-06T13:28:48Z</time>
      </trkpt>
      <trkpt lat="51.205130448827" lon="4.6143281509">
        <ele>8.2</ele>
        <time>2020-09-06T13:28:59Z</time>
      </trkpt>
      <trkpt lat="51.204686711041" lon="4.613789613825">
        <ele>5.2</ele>
        <time>2020-09-06T13:29:09Z</time>
      </trkpt>
      <trkpt lat="51.204332659585" lon="4.613098777627">
        <ele>5.4</ele>
        <time>2020-09-06T13:29:19Z</time>
      </trkpt>
      <trkpt lat="51.20408665082" lon="4.61228632006">
        <ele>4.6</ele>
        <time>2020-09-06T13:29:29Z</time>
      </trkpt>
      <trkpt lat="51.203980033052" lon="4.611372441503">
        <ele>4</ele>
        <time>2020-09-06T13:29:39Z</time>
      </trkpt>
      <trkpt lat="51.204043567854" lon="4.610462334801">
        <ele>3.8</ele>
        <time>2020-09-06T13:29:49Z</time>
      </trkpt>
      <trkpt lat="51.204086986096" lon="4.610200651883">
        <ele>4.8</ele>
        <time>2020-09-06T13:29:52Z</time>
      </trkpt>
      <trkpt lat="51.204327462807" lon="4.609365479367">
        <ele>5.4</ele>
        <time>2020-09-06T13:30:01Z</time>
      </trkpt>
      <trkpt lat="51.204594007227" lon="4.608586130305">
        <ele>4.6</ele>
        <time>2020-09-06T13:30:10Z</time>
      </trkpt>
      <trkpt lat="51.204863988226" lon="4.607742408251">
        <ele>4</ele>
        <time>2020-09-06T13:30:20Z</time>
      </trkpt>
      <trkpt lat="51.205033889339" lon="4.60723035798">
        <ele>4.2</ele>
        <time>2020-09-06T13:30:26Z</time>
      </trkpt>
      <trkpt lat="51.205254752404" lon="4.606729707093">
        <ele>4</ele>
        <time>2020-09-06T13:30:32Z</time>
      </trkpt>
      <trkpt lat="51.205532193294" lon="4.605907442703">
        <ele>3</ele>
        <time>2020-09-06T13:30:41Z</time>
      </trkpt>
      <trkpt lat="51.205758253137" lon="4.605119879379">
        <ele>3.6</ele>
        <time>2020-09-06T13:30:50Z</time>
      </trkpt>
      <trkpt lat="51.205848023286" lon="4.604781082981">
        <ele>5.8</ele>
        <time>2020-09-06T13:30:54Z</time>
      </trkpt>
      <trkpt lat="51.206089422006" lon="4.603931661235">
        <ele>6.6</ele>
        <time>2020-09-06T13:31:06Z</time>
      </trkpt>
      <trkpt lat="51.206339202626" lon="4.603168070145">
        <ele>6.8</ele>
        <time>2020-09-06T13:31:16Z</time>
      </trkpt>
      <trkpt lat="51.206584373201" lon="4.602391738567">
        <ele>6.6</ele>
        <time>2020-09-06T13:31:26Z</time>
      </trkpt>
      <trkpt lat="51.206849660336" lon="4.601573497489">
        <ele>6</ele>
        <time>2020-09-06T13:31:36Z</time>
      </trkpt>
      <trkpt lat="51.207099776232" lon="4.600780402111">
        <ele>6</ele>
        <time>2020-09-06T13:31:46Z</time>
      </trkpt>
      <trkpt lat="51.207338325106" lon="4.599994096072">
        <ele>5.8</ele>
        <time>2020-09-06T13:31:56Z</time>
      </trkpt>
      <trkpt lat="51.207633703262" lon="4.599216758666">
        <ele>4.4</ele>
        <time>2020-09-06T13:32:06Z</time>
      </trkpt>
      <trkpt lat="51.207902594614" lon="4.598452161748">
        <ele>5.2</ele>
        <time>2020-09-06T13:32:16Z</time>
      </trkpt>
      <trkpt lat="51.20814935775" lon="4.597679602025">
        <ele>5.6</ele>
        <time>2020-09-06T13:32:26Z</time>
      </trkpt>
      <trkpt lat="51.20826083702" lon="4.597391180846">
        <ele>5.6</ele>
        <time>2020-09-06T13:32:30Z</time>
      </trkpt>
      <trkpt lat="51.208504498853" lon="4.596575454338">
        <ele>6.2</ele>
        <time>2020-09-06T13:32:41Z</time>
      </trkpt>
      <trkpt lat="51.208632658104" lon="4.596228862773">
        <ele>6.2</ele>
        <time>2020-09-06T13:32:46Z</time>
      </trkpt>
      <trkpt lat="51.208876487575" lon="4.595443562562">
        <ele>6.4</ele>
        <time>2020-09-06T13:32:56Z</time>
      </trkpt>
      <trkpt lat="51.209146300936" lon="4.59468349187">
        <ele>5.4</ele>
        <time>2020-09-06T13:33:06Z</time>
      </trkpt>
      <trkpt lat="51.209414689374" lon="4.593871956312">
        <ele>6</ele>
        <time>2020-09-06T13:33:16Z</time>
      </trkpt>
      <trkpt lat="51.209715599584" lon="4.592957742479">
        <ele>5.6</ele>
        <time>2020-09-06T13:33:26Z</time>
      </trkpt>
      <trkpt lat="51.20998499385" lon="4.592134136985">
        <ele>5.2</ele>
        <time>2020-09-06T13:33:37Z</time>
      </trkpt>
      <trkpt lat="51.210233349547" lon="4.591349088231">
        <ele>4.2</ele>
        <time>2020-09-06T13:33:47Z</time>
      </trkpt>
      <trkpt lat="51.210482794891" lon="4.590573594843">
        <ele>4.4</ele>
        <time>2020-09-06T13:33:57Z</time>
      </trkpt>
      <trkpt lat="51.210754116994" lon="4.589758371249">
        <ele>4.2</ele>
        <time>2020-09-06T13:34:08Z</time>
      </trkpt>
      <trkpt lat="51.211036251748" lon="4.588909871512">
        <ele>4</ele>
        <time>2020-09-06T13:34:18Z</time>
      </trkpt>
      <trkpt lat="51.211295503915" lon="4.588093725909">
        <ele>2.6</ele>
        <time>2020-09-06T13:34:27Z</time>
      </trkpt>
      <trkpt lat="51.211549140209" lon="4.587251344959">
        <ele>5.8</ele>
        <time>2020-09-06T13:34:37Z</time>
      </trkpt>
      <trkpt lat="51.211829933859" lon="4.586441234324">
        <ele>8.2</ele>
        <time>2020-09-06T13:34:47Z</time>
      </trkpt>
      <trkpt lat="51.212078876289" lon="4.585662974909">
        <ele>7.2</ele>
        <time>2020-09-06T13:34:57Z</time>
      </trkpt>
      <trkpt lat="51.212347097089" lon="4.584842219261">
        <ele>8.6</ele>
        <time>2020-09-06T13:35:08Z</time>
      </trkpt>
      <trkpt lat="51.212597967356" lon="4.584047363684">
        <ele>10.2</ele>
        <time>2020-09-06T13:35:18Z</time>
      </trkpt>
      <trkpt lat="51.212860404645" lon="4.583259967998">
        <ele>7.8</ele>
        <time>2020-09-06T13:35:28Z</time>
      </trkpt>
      <trkpt lat="51.212970794268" lon="4.582975737769">
        <ele>7.6</ele>
        <time>2020-09-06T13:35:32Z</time>
      </trkpt>
      <trkpt lat="51.213033909975" lon="4.582851685649">
        <ele>7.6</ele>
        <time>2020-09-06T13:35:34Z</time>
      </trkpt>
      <trkpt lat="51.213287546269" lon="4.582040485367">
        <ele>6.4</ele>
        <time>2020-09-06T13:35:45Z</time>
      </trkpt>
      <trkpt lat="51.213537410708" lon="4.581278989752">
        <ele>7</ele>
        <time>2020-09-06T13:35:55Z</time>
      </trkpt>
      <trkpt lat="51.213829687561" lon="4.580371816715">
        <ele>5.4</ele>
        <time>2020-09-06T13:36:08Z</time>
      </trkpt>
      <trkpt lat="51.213873021984" lon="4.580225217284">
        <ele>5.6</ele>
        <time>2020-09-06T13:36:10Z</time>
      </trkpt>
      <trkpt lat="51.214156414023" lon="4.579419381418">
        <ele>6.6</ele>
        <time>2020-09-06T13:36:20Z</time>
      </trkpt>
      <trkpt lat="51.214436956216" lon="4.578628381515">
        <ele>4.2</ele>
        <time>2020-09-06T13:36:31Z</time>
      </trkpt>
      <trkpt lat="51.214589422977" lon="4.578205849936">
        <ele>3.8</ele>
        <time>2020-09-06T13:36:37Z</time>
      </trkpt>
      <trkpt lat="51.214690760148" lon="4.578028908027">
        <ele>3.8</ele>
        <time>2020-09-06T13:36:41Z</time>
      </trkpt>
      <trkpt lat="51.215556778056" lon="4.574986445965">
        <ele>0.8</ele>
        <time>2020-09-06T13:37:51Z</time>
      </trkpt>
      <trkpt lat="51.215817455146" lon="4.574225285626">
        <ele>3</ele>
        <time>2020-09-06T13:38:01Z</time>
      </trkpt>
      <trkpt lat="51.215939244153" lon="4.573853296904">
        <ele>3.8</ele>
        <time>2020-09-06T13:38:06Z</time>
      </trkpt>
      <trkpt lat="51.216185169099" lon="4.573028937039">
        <ele>5.2</ele>
        <time>2020-09-06T13:38:16Z</time>
      </trkpt>
      <trkpt lat="51.216431848416" lon="4.572241541353">
        <ele>5.4</ele>
        <time>2020-09-06T13:38:25Z</time>
      </trkpt>
      <trkpt lat="51.216690932945" lon="4.571452050192">
        <ele>5.2</ele>
        <time>2020-09-06T13:38:34Z</time>
      </trkpt>
      <trkpt lat="51.216956639175" lon="4.570609082509">
        <ele>5.6</ele>
        <time>2020-09-06T13:38:43Z</time>
      </trkpt>
      <trkpt lat="51.217226368717" lon="4.569752117053">
        <ele>5.6</ele>
        <time>2020-09-06T13:38:52Z</time>
      </trkpt>
      <trkpt lat="51.217505318349" lon="4.568898420538">
        <ele>5.2</ele>
        <time>2020-09-06T13:39:01Z</time>
      </trkpt>
      <trkpt lat="51.21777764628" lon="4.568064756764">
        <ele>5.2</ele>
        <time>2020-09-06T13:39:10Z</time>
      </trkpt>
      <trkpt lat="51.218046789089" lon="4.567241067451">
        <ele>4.2</ele>
        <time>2020-09-06T13:39:19Z</time>
      </trkpt>
      <trkpt lat="51.21830654417" lon="4.566416707586">
        <ele>4.2</ele>
        <time>2020-09-06T13:39:28Z</time>
      </trkpt>
      <trkpt lat="51.218548445804" lon="4.565644818415">
        <ele>4.4</ele>
        <time>2020-09-06T13:39:37Z</time>
      </trkpt>
      <trkpt lat="51.218806356867" lon="4.564834121047">
        <ele>4.4</ele>
        <time>2020-09-06T13:39:47Z</time>
      </trkpt>
      <trkpt lat="51.21905253327" lon="4.564041612402">
        <ele>4.4</ele>
        <time>2020-09-06T13:39:57Z</time>
      </trkpt>
      <trkpt lat="51.219298542035" lon="4.563275590561">
        <ele>4.4</ele>
        <time>2020-09-06T13:40:07Z</time>
      </trkpt>
      <trkpt lat="51.219544383162" lon="4.562507221788">
        <ele>4.4</ele>
        <time>2020-09-06T13:40:17Z</time>
      </trkpt>
      <trkpt lat="51.219792906497" lon="4.561695434773">
        <ele>5.2</ele>
        <time>2020-09-06T13:40:28Z</time>
      </trkpt>
      <trkpt lat="51.220026845326" lon="4.560852047995">
        <ele>5.4</ele>
        <time>2020-09-06T13:40:39Z</time>
      </trkpt>
      <trkpt lat="51.220294982307" lon="4.56004948107">
        <ele>4.8</ele>
        <time>2020-09-06T13:40:49Z</time>
      </trkpt>
      <trkpt lat="51.220540404339" lon="4.559248758163">
        <ele>5.4</ele>
        <time>2020-09-06T13:40:59Z</time>
      </trkpt>
      <trkpt lat="51.220807870768" lon="4.558411825448">
        <ele>5</ele>
        <time>2020-09-06T13:41:10Z</time>
      </trkpt>
      <trkpt lat="51.221052203153" lon="4.557637337888">
        <ele>5.6</ele>
        <time>2020-09-06T13:41:20Z</time>
      </trkpt>
      <trkpt lat="51.221305336533" lon="4.556817504249">
        <ele>6.4</ele>
        <time>2020-09-06T13:41:30Z</time>
      </trkpt>
      <trkpt lat="51.22158889621" lon="4.556033293685">
        <ele>4.8</ele>
        <time>2020-09-06T13:41:40Z</time>
      </trkpt>
      <trkpt lat="51.221799030443" lon="4.5552189921">
        <ele>5.4</ele>
        <time>2020-09-06T13:41:50Z</time>
      </trkpt>
      <trkpt lat="51.222023413906" lon="4.55442690255">
        <ele>5.8</ele>
        <time>2020-09-06T13:42:00Z</time>
      </trkpt>
      <trkpt lat="51.222286857023" lon="4.553649229868">
        <ele>3.8</ele>
        <time>2020-09-06T13:42:10Z</time>
      </trkpt>
      <trkpt lat="51.222537308195" lon="4.552861415087">
        <ele>2</ele>
        <time>2020-09-06T13:42:20Z</time>
      </trkpt>
      <trkpt lat="51.222737635605" lon="4.552083742405">
        <ele>2</ele>
        <time>2020-09-06T13:42:30Z</time>
      </trkpt>
      <trkpt lat="51.222995965763" lon="4.551270781924">
        <ele>3</ele>
        <time>2020-09-06T13:42:41Z</time>
      </trkpt>
      <trkpt lat="51.223284135485" lon="4.550430831725">
        <ele>4.4</ele>
        <time>2020-09-06T13:42:52Z</time>
      </trkpt>
      <trkpt lat="51.223535089571" lon="4.549622062194">
        <ele>5.2</ele>
        <time>2020-09-06T13:43:01Z</time>
      </trkpt>
      <trkpt lat="51.223789061141" lon="4.548834079775">
        <ele>6</ele>
        <time>2020-09-06T13:43:11Z</time>
      </trkpt>
      <trkpt lat="51.224051163154" lon="4.548012066842">
        <ele>6.8</ele>
        <time>2020-09-06T13:43:22Z</time>
      </trkpt>
      <trkpt lat="51.224314941547" lon="4.547197010886">
        <ele>7</ele>
        <time>2020-09-06T13:43:33Z</time>
      </trkpt>
      <trkpt lat="51.224580563958" lon="4.546390839744">
        <ele>6.4</ele>
        <time>2020-09-06T13:43:45Z</time>
      </trkpt>
      <trkpt lat="51.224837301555" lon="4.545559858178">
        <ele>8</ele>
        <time>2020-09-06T13:43:57Z</time>
      </trkpt>
      <trkpt lat="51.225092698048" lon="4.544745472774">
        <ele>7</ele>
        <time>2020-09-06T13:44:08Z</time>
      </trkpt>
      <trkpt lat="51.225159837067" lon="4.544515892533">
        <ele>6.6</ele>
        <time>2020-09-06T13:44:11Z</time>
      </trkpt>
      <trkpt lat="51.22520736244" lon="4.544361665573">
        <ele>6.6</ele>
        <time>2020-09-06T13:44:13Z</time>
      </trkpt>
      <trkpt lat="51.225471559928" lon="4.543530935464">
        <ele>5.8</ele>
        <time>2020-09-06T13:44:24Z</time>
      </trkpt>
      <trkpt lat="51.225710695535" lon="4.542694086568">
        <ele>5.4</ele>
        <time>2020-09-06T13:44:35Z</time>
      </trkpt>
      <trkpt lat="51.225963996553" lon="4.541905349778">
        <ele>4.2</ele>
        <time>2020-09-06T13:44:46Z</time>
      </trkpt>
      <trkpt lat="51.226225428014" lon="4.541101693206">
        <ele>3</ele>
        <time>2020-09-06T13:44:57Z</time>
      </trkpt>
      <trkpt lat="51.226499767601" lon="4.540302814317">
        <ele>2.4</ele>
        <time>2020-09-06T13:45:08Z</time>
      </trkpt>
      <trkpt lat="51.226731527136" lon="4.539483735049">
        <ele>1</ele>
        <time>2020-09-06T13:45:20Z</time>
      </trkpt>
      <trkpt lat="51.226965968879" lon="4.538661303021">
        <ele>2</ele>
        <time>2020-09-06T13:45:31Z</time>
      </trkpt>
      <trkpt lat="51.227113155043" lon="4.538212787552">
        <ele>2.4</ele>
        <time>2020-09-06T13:45:37Z</time>
      </trkpt>
      <trkpt lat="51.227311051702" lon="4.537806516859">
        <ele>2.8</ele>
        <time>2020-09-06T13:45:43Z</time>
      </trkpt>
      <trkpt lat="51.227389925381" lon="4.537543995751">
        <ele>3.2</ele>
        <time>2020-09-06T13:45:47Z</time>
      </trkpt>
      <trkpt lat="51.227695613274" lon="4.536744865405">
        <ele>2.2</ele>
        <time>2020-09-06T13:45:58Z</time>
      </trkpt>
      <trkpt lat="51.227907759163" lon="4.536406404283">
        <ele>1</ele>
        <time>2020-09-06T13:46:03Z</time>
      </trkpt>
      <trkpt lat="51.228043965038" lon="4.536287046027">
        <ele>0.4</ele>
        <time>2020-09-06T13:46:06Z</time>
      </trkpt>
      <trkpt lat="51.228266588302" lon="4.53617782987">
        <ele>0</ele>
        <time>2020-09-06T13:46:12Z</time>
      </trkpt>
      <trkpt lat="51.228271114528" lon="4.535885133922">
        <ele>0</ele>
        <time>2020-09-06T13:46:17Z</time>
      </trkpt>
      <trkpt lat="51.228311012372" lon="4.534985336957">
        <ele>0</ele>
        <time>2020-09-06T13:46:28Z</time>
      </trkpt>
      <trkpt lat="51.228343450325" lon="4.534744105875">
        <ele>0</ele>
        <time>2020-09-06T13:46:31Z</time>
      </trkpt>
      <trkpt lat="51.22858359176" lon="4.533905245323">
        <ele>0.6</ele>
        <time>2020-09-06T13:46:44Z</time>
      </trkpt>
      <trkpt lat="51.228660034688" lon="4.533581536345">
        <ele>1.4</ele>
        <time>2020-09-06T13:46:48Z</time>
      </trkpt>
      <trkpt lat="51.228748296095" lon="4.533384729333">
        <ele>0.6</ele>
        <time>2020-09-06T13:46:51Z</time>
      </trkpt>
      <trkpt lat="51.229157500453" lon="4.532977452812">
        <ele>2.6</ele>
        <time>2020-09-06T13:47:02Z</time>
      </trkpt>
      <trkpt lat="51.229241990005" lon="4.532940404814">
        <ele>3</ele>
        <time>2020-09-06T13:47:04Z</time>
      </trkpt>
      <trkpt lat="51.229648679793" lon="4.532829931372">
        <ele>4.2</ele>
        <time>2020-09-06T13:47:13Z</time>
      </trkpt>
      <trkpt lat="51.229701821039" lon="4.53297762045">
        <ele>6</ele>
        <time>2020-09-06T13:47:17Z</time>
      </trkpt>
      <trkpt lat="51.229346931393" lon="4.533489503083">
        <ele>11.4</ele>
        <time>2020-09-06T13:47:27Z</time>
      </trkpt>
      <trkpt lat="51.228908055109" lon="4.534065255794">
        <ele>10.4</ele>
        <time>2020-09-06T13:47:39Z</time>
      </trkpt>
      <trkpt lat="51.228649892589" lon="4.534475046885">
        <ele>9.6</ele>
        <time>2020-09-06T13:47:46Z</time>
      </trkpt>
      <trkpt lat="51.228521062786" lon="4.534520979697">
        <ele>11.4</ele>
        <time>2020-09-06T13:47:48Z</time>
      </trkpt>
      <trkpt lat="51.228076151534" lon="4.534020412629">
        <ele>11</ele>
        <time>2020-09-06T13:48:05Z</time>
      </trkpt>
      <trkpt lat="51.227955116898" lon="4.533735847124">
        <ele>10.8</ele>
        <time>2020-09-06T13:48:10Z</time>
      </trkpt>
      <trkpt lat="51.227805919078" lon="4.532932442009">
        <ele>9.4</ele>
        <time>2020-09-06T13:48:23Z</time>
      </trkpt>
      <trkpt lat="51.22790717243" lon="4.532092743267">
        <ele>6.4</ele>
        <time>2020-09-06T13:48:33Z</time>
      </trkpt>
      <trkpt lat="51.228172543384" lon="4.531252709249">
        <ele>2.8</ele>
        <time>2020-09-06T13:48:42Z</time>
      </trkpt>
      <trkpt lat="51.228395585743" lon="4.530519628275">
        <ele>0</ele>
        <time>2020-09-06T13:48:49Z</time>
      </trkpt>
      <trkpt lat="51.228428191334" lon="4.529583202407">
        <ele>0</ele>
        <time>2020-09-06T13:48:58Z</time>
      </trkpt>
      <trkpt lat="51.228449313722" lon="4.52870955697">
        <ele>0</ele>
        <time>2020-09-06T13:49:08Z</time>
      </trkpt>
      <trkpt lat="51.228460629287" lon="4.527806574883">
        <ele>0</ele>
        <time>2020-09-06T13:49:21Z</time>
      </trkpt>
      <trkpt lat="51.228354095338" lon="4.526957823689">
        <ele>1</ele>
        <time>2020-09-06T13:49:34Z</time>
      </trkpt>
      <trkpt lat="51.228230210856" lon="4.526081244587">
        <ele>0</ele>
        <time>2020-09-06T13:49:45Z</time>
      </trkpt>
      <trkpt lat="51.228088808203" lon="4.525206090408">
        <ele>0.2</ele>
        <time>2020-09-06T13:49:56Z</time>
      </trkpt>
      <trkpt lat="51.227950506853" lon="4.524555906425">
        <ele>1</ele>
        <time>2020-09-06T13:50:05Z</time>
      </trkpt>
      <trkpt lat="51.227750598538" lon="4.523754345328">
        <ele>4.4</ele>
        <time>2020-09-06T13:50:17Z</time>
      </trkpt>
      <trkpt lat="51.227612632464" lon="4.522906516143">
        <ele>9.2</ele>
        <time>2020-09-06T13:50:29Z</time>
      </trkpt>
      <trkpt lat="51.227461087712" lon="4.521931198259">
        <ele>5.2</ele>
        <time>2020-09-06T13:50:41Z</time>
      </trkpt>
      <trkpt lat="51.227306022562" lon="4.521027294163">
        <ele>8.4</ele>
        <time>2020-09-06T13:50:55Z</time>
      </trkpt>
      <trkpt lat="51.227269058383" lon="4.520777345905">
        <ele>8.4</ele>
        <time>2020-09-06T13:50:57Z</time>
      </trkpt>
      <trkpt lat="51.227163949357" lon="4.519890289428">
        <ele>10.6</ele>
        <time>2020-09-06T13:51:09Z</time>
      </trkpt>
      <trkpt lat="51.227030844785" lon="4.519005496064">
        <ele>7</ele>
        <time>2020-09-06T13:51:22Z</time>
      </trkpt>
      <trkpt lat="51.226850801573" lon="4.517754665127">
        <ele>6.8</ele>
        <time>2020-09-06T13:51:38Z</time>
      </trkpt>
      <trkpt lat="51.226734963715" lon="4.516866183727">
        <ele>7.8</ele>
        <time>2020-09-06T13:51:49Z</time>
      </trkpt>
      <trkpt lat="51.226588029008" lon="4.515977199413">
        <ele>4.4</ele>
        <time>2020-09-06T13:52:00Z</time>
      </trkpt>
      <trkpt lat="51.226365908658" lon="4.515038091337">
        <ele>13.6</ele>
        <time>2020-09-06T13:52:11Z</time>
      </trkpt>
      <trkpt lat="51.226178154098" lon="4.514217335689">
        <ele>17</ele>
        <time>2020-09-06T13:52:22Z</time>
      </trkpt>
      <trkpt lat="51.226106991767" lon="4.513614677079">
        <ele>9.6</ele>
        <time>2020-09-06T13:52:29Z</time>
      </trkpt>
      <trkpt lat="51.226118223513" lon="4.513386270304">
        <ele>7.2</ele>
        <time>2020-09-06T13:52:32Z</time>
      </trkpt>
      <trkpt lat="51.226049659571" lon="4.513071110864">
        <ele>5.8</ele>
        <time>2020-09-06T13:52:38Z</time>
      </trkpt>
      <trkpt lat="51.226020239102" lon="4.512910010746">
        <ele>4.6</ele>
        <time>2020-09-06T13:52:40Z</time>
      </trkpt>
      <trkpt lat="51.225996266868" lon="4.512631312571">
        <ele>4</ele>
        <time>2020-09-06T13:52:43Z</time>
      </trkpt>
      <trkpt lat="51.225874645499" lon="4.51178314811">
        <ele>4.6</ele>
        <time>2020-09-06T13:52:52Z</time>
      </trkpt>
      <trkpt lat="51.225718993616" lon="4.510920482962">
        <ele>6.4</ele>
        <time>2020-09-06T13:53:01Z</time>
      </trkpt>
      <trkpt lat="51.225534424178" lon="4.51002127273">
        <ele>3.4</ele>
        <time>2020-09-06T13:53:11Z</time>
      </trkpt>
      <trkpt lat="51.225385226358" lon="4.509186603128">
        <ele>2</ele>
        <time>2020-09-06T13:53:21Z</time>
      </trkpt>
      <trkpt lat="51.225226808448" lon="4.508355286286">
        <ele>2.8</ele>
        <time>2020-09-06T13:53:31Z</time>
      </trkpt>
      <trkpt lat="51.225026983952" lon="4.507405030283">
        <ele>2.2</ele>
        <time>2020-09-06T13:53:42Z</time>
      </trkpt>
      <trkpt lat="51.224856328468" lon="4.506552255777">
        <ele>3</ele>
        <time>2020-09-06T13:53:55Z</time>
      </trkpt>
      <trkpt lat="51.224681062939" lon="4.505664109653">
        <ele>2.6</ele>
        <time>2020-09-06T13:54:07Z</time>
      </trkpt>
      <trkpt lat="51.224520465735" lon="4.504820722875">
        <ele>2.4</ele>
        <time>2020-09-06T13:54:18Z</time>
      </trkpt>
      <trkpt lat="51.224348720604" lon="4.503926709421">
        <ele>2</ele>
        <time>2020-09-06T13:54:29Z</time>
      </trkpt>
      <trkpt lat="51.224169850858" lon="4.503064882463">
        <ele>0.6</ele>
        <time>2020-09-06T13:54:40Z</time>
      </trkpt>
      <trkpt lat="51.223993328044" lon="4.502225854273">
        <ele>0.4</ele>
        <time>2020-09-06T13:54:51Z</time>
      </trkpt>
      <trkpt lat="51.223815715583" lon="4.501347850248">
        <ele>0.4</ele>
        <time>2020-09-06T13:55:02Z</time>
      </trkpt>
      <trkpt lat="51.223638438398" lon="4.500484430729">
        <ele>0.4</ele>
        <time>2020-09-06T13:55:13Z</time>
      </trkpt>
      <trkpt lat="51.223460909756" lon="4.499612377853">
        <ele>0.2</ele>
        <time>2020-09-06T13:55:24Z</time>
      </trkpt>
      <trkpt lat="51.22338765195" lon="4.499149361697">
        <ele>0</ele>
        <time>2020-09-06T13:55:30Z</time>
      </trkpt>
      <trkpt lat="51.223221522692" lon="4.498322571081">
        <ele>0.2</ele>
        <time>2020-09-06T13:55:42Z</time>
      </trkpt>
      <trkpt lat="51.223184642332" lon="4.498086033863">
        <ele>0</ele>
        <time>2020-09-06T13:55:48Z</time>
      </trkpt>
      <trkpt lat="51.223048687914" lon="4.497481279778">
        <ele>0.2</ele>
        <time>2020-09-06T13:56:42Z</time>
      </trkpt>
      <trkpt lat="51.222980207791" lon="4.497322945687">
        <ele>0</ele>
        <time>2020-09-06T13:56:45Z</time>
      </trkpt>
      <trkpt lat="51.222837044939" lon="4.49647276957">
        <ele>0</ele>
        <time>2020-09-06T13:56:56Z</time>
      </trkpt>
      <trkpt lat="51.222679884314" lon="4.495603734178">
        <ele>0</ele>
        <time>2020-09-06T13:57:07Z</time>
      </trkpt>
      <trkpt lat="51.222480562732" lon="4.494730675474">
        <ele>0</ele>
        <time>2020-09-06T13:57:18Z</time>
      </trkpt>
      <trkpt lat="51.222304961927" lon="4.493893910397">
        <ele>0</ele>
        <time>2020-09-06T13:57:28Z</time>
      </trkpt>
      <trkpt lat="51.222143610352" lon="4.493071981283">
        <ele>0</ele>
        <time>2020-09-06T13:57:38Z</time>
      </trkpt>
      <trkpt lat="51.221958454181" lon="4.492211998343">
        <ele>0</ele>
        <time>2020-09-06T13:57:48Z</time>
      </trkpt>
      <trkpt lat="51.221839012106" lon="4.491597102159">
        <ele>0</ele>
        <time>2020-09-06T13:57:54Z</time>
      </trkpt>
      <trkpt lat="51.221659052713" lon="4.490734269373">
        <ele>0</ele>
        <time>2020-09-06T13:58:05Z</time>
      </trkpt>
      <trkpt lat="51.221489822152" lon="4.489910663879">
        <ele>1.6</ele>
        <time>2020-09-06T13:58:15Z</time>
      </trkpt>
      <trkpt lat="51.22136677586" lon="4.489283446302">
        <ele>1.4</ele>
        <time>2020-09-06T13:58:24Z</time>
      </trkpt>
      <trkpt lat="51.221351520802" lon="4.489116562673">
        <ele>1.8</ele>
        <time>2020-09-06T13:58:26Z</time>
      </trkpt>
      <trkpt lat="51.221278430634" lon="4.488706184849">
        <ele>1.4</ele>
        <time>2020-09-06T13:58:31Z</time>
      </trkpt>
      <trkpt lat="51.221205508104" lon="4.488414662367">
        <ele>0.8</ele>
        <time>2020-09-06T13:58:35Z</time>
      </trkpt>
      <trkpt lat="51.221042312511" lon="4.48758963195">
        <ele>0.2</ele>
        <time>2020-09-06T13:58:46Z</time>
      </trkpt>
      <trkpt lat="51.220912979794" lon="4.486749933208">
        <ele>0.2</ele>
        <time>2020-09-06T13:58:57Z</time>
      </trkpt>
      <trkpt lat="51.220830418079" lon="4.48629714297">
        <ele>0</ele>
        <time>2020-09-06T13:59:03Z</time>
      </trkpt>
      <trkpt lat="51.220801919619" lon="4.486148531883">
        <ele>0</ele>
        <time>2020-09-06T13:59:05Z</time>
      </trkpt>
      <trkpt lat="51.220760513033" lon="4.48600293828">
        <ele>0</ele>
        <time>2020-09-06T13:59:07Z</time>
      </trkpt>
      <trkpt lat="51.220589438454" lon="4.485134489621">
        <ele>0.6</ele>
        <time>2020-09-06T13:59:18Z</time>
      </trkpt>
      <trkpt lat="51.220420207893" lon="4.484255647406">
        <ele>1.2</ele>
        <time>2020-09-06T13:59:29Z</time>
      </trkpt>
      <trkpt lat="51.220252905169" lon="4.483430616989">
        <ele>0.2</ele>
        <time>2020-09-06T13:59:40Z</time>
      </trkpt>
      <trkpt lat="51.22007763964" lon="4.482570131135">
        <ele>0</ele>
        <time>2020-09-06T13:59:51Z</time>
      </trkpt>
      <trkpt lat="51.219902877025" lon="4.481721044665">
        <ele>0</ele>
        <time>2020-09-06T14:00:01Z</time>
      </trkpt>
      <trkpt lat="51.219784356959" lon="4.481135988045">
        <ele>0</ele>
        <time>2020-09-06T14:00:08Z</time>
      </trkpt>
      <trkpt lat="51.219769437177" lon="4.480836167482">
        <ele>0</ele>
        <time>2020-09-06T14:00:12Z</time>
      </trkpt>
      <trkpt lat="51.219622167194" lon="4.48028648248">
        <ele>0</ele>
        <time>2020-09-06T14:00:21Z</time>
      </trkpt>
      <trkpt lat="51.219447153122" lon="4.479412669405">
        <ele>0</ele>
        <time>2020-09-06T14:00:31Z</time>
      </trkpt>
      <trkpt lat="51.219275910905" lon="4.478577915984">
        <ele>0</ele>
        <time>2020-09-06T14:00:40Z</time>
      </trkpt>
      <trkpt lat="51.2190919282" lon="4.477681304141">
        <ele>0</ele>
        <time>2020-09-06T14:00:51Z</time>
      </trkpt>
      <trkpt lat="51.21895865599" lon="4.477023073534">
        <ele>0</ele>
        <time>2020-09-06T14:00:59Z</time>
      </trkpt>
      <trkpt lat="51.218998386196" lon="4.476105674579">
        <ele>0</ele>
        <time>2020-09-06T14:01:09Z</time>
      </trkpt>
      <trkpt lat="51.219050521614" lon="4.475589852453">
        <ele>0</ele>
        <time>2020-09-06T14:01:15Z</time>
      </trkpt>
      <trkpt lat="51.219078684798" lon="4.475429925801">
        <ele>0</ele>
        <time>2020-09-06T14:01:17Z</time>
      </trkpt>
      <trkpt lat="51.219136855184" lon="4.474965149446">
        <ele>0</ele>
        <time>2020-09-06T14:01:23Z</time>
      </trkpt>
      <trkpt lat="51.219168287309" lon="4.474815197255">
        <ele>0</ele>
        <time>2020-09-06T14:01:25Z</time>
      </trkpt>
      <trkpt lat="51.219202988375" lon="4.474436167737">
        <ele>0</ele>
        <time>2020-09-06T14:01:30Z</time>
      </trkpt>
      <trkpt lat="51.219349168711" lon="4.473534526754">
        <ele>0</ele>
        <time>2020-09-06T14:01:41Z</time>
      </trkpt>
      <trkpt lat="51.219496354875" lon="4.47265979167">
        <ele>0</ele>
        <time>2020-09-06T14:01:52Z</time>
      </trkpt>
      <trkpt lat="51.219610013439" lon="4.471815482883">
        <ele>0</ele>
        <time>2020-09-06T14:02:02Z</time>
      </trkpt>
      <trkpt lat="51.219640188279" lon="4.471661758837">
        <ele>0</ele>
        <time>2020-09-06T14:02:04Z</time>
      </trkpt>
      <trkpt lat="51.21976080382" lon="4.471073433276">
        <ele>0</ele>
        <time>2020-09-06T14:02:12Z</time>
      </trkpt>
      <trkpt lat="51.219890890908" lon="4.470174139225">
        <ele>0</ele>
        <time>2020-09-06T14:02:25Z</time>
      </trkpt>
      <trkpt lat="51.220044698773" lon="4.469406357185">
        <ele>0</ele>
        <time>2020-09-06T14:02:35Z</time>
      </trkpt>
      <trkpt lat="51.220049727913" lon="4.468778888151">
        <ele>0</ele>
        <time>2020-09-06T14:03:22Z</time>
      </trkpt>
      <trkpt lat="51.220123656271" lon="4.467915384813">
        <ele>0</ele>
        <time>2020-09-06T14:03:36Z</time>
      </trkpt>
      <trkpt lat="51.220171014006" lon="4.467025646128">
        <ele>0</ele>
        <time>2020-09-06T14:03:46Z</time>
      </trkpt>
      <trkpt lat="51.220136229121" lon="4.466121574394">
        <ele>0</ele>
        <time>2020-09-06T14:03:56Z</time>
      </trkpt>
      <trkpt lat="51.220116364018" lon="4.465877661104">
        <ele>0</ele>
        <time>2020-09-06T14:03:59Z</time>
      </trkpt>
      <trkpt lat="51.220154166387" lon="4.464932182784">
        <ele>0</ele>
        <time>2020-09-06T14:04:10Z</time>
      </trkpt>
      <trkpt lat="51.22016732597" lon="4.464028697783">
        <ele>0</ele>
        <time>2020-09-06T14:04:20Z</time>
      </trkpt>
      <trkpt lat="51.220061797849" lon="4.463141725125">
        <ele>0</ele>
        <time>2020-09-06T14:04:31Z</time>
      </trkpt>
      <trkpt lat="51.220027683516" lon="4.46228216128">
        <ele>0</ele>
        <time>2020-09-06T14:04:41Z</time>
      </trkpt>
      <trkpt lat="51.22008183059" lon="4.461341795919">
        <ele>0</ele>
        <time>2020-09-06T14:04:52Z</time>
      </trkpt>
      <trkpt lat="51.220326162975" lon="4.460606451832">
        <ele>0.6</ele>
        <time>2020-09-06T14:05:03Z</time>
      </trkpt>
      <trkpt lat="51.22036765338" lon="4.460348959864">
        <ele>0</ele>
        <time>2020-09-06T14:05:07Z</time>
      </trkpt>
      <trkpt lat="51.22041878297" lon="4.459743870503">
        <ele>0</ele>
        <time>2020-09-06T14:05:15Z</time>
      </trkpt>
      <trkpt lat="51.220465134877" lon="4.459626942998">
        <ele>0</ele>
        <time>2020-09-06T14:05:17Z</time>
      </trkpt>
      <trkpt lat="51.220555240302" lon="4.459588134801">
        <ele>0</ele>
        <time>2020-09-06T14:05:19Z</time>
      </trkpt>
      <trkpt lat="51.220665294649" lon="4.459566677137">
        <ele>0</ele>
        <time>2020-09-06T14:05:21Z</time>
      </trkpt>
      <trkpt lat="51.221232833098" lon="4.459445223406">
        <ele>4.4</ele>
        <time>2020-09-06T14:05:31Z</time>
      </trkpt>
      <trkpt lat="51.221779919711" lon="4.459383448803">
        <ele>4.8</ele>
        <time>2020-09-06T14:05:40Z</time>
      </trkpt>
      <trkpt lat="51.222361875028" lon="4.459235843544">
        <ele>9.6</ele>
        <time>2020-09-06T14:05:50Z</time>
      </trkpt>
      <trkpt lat="51.222921366853" lon="4.459188988723">
        <ele>7</ele>
        <time>2020-09-06T14:05:59Z</time>
      </trkpt>
      <trkpt lat="51.223487983293" lon="4.459003329638">
        <ele>14</ele>
        <time>2020-09-06T14:06:10Z</time>
      </trkpt>
      <trkpt lat="51.224041859245" lon="4.45896209069">
        <ele>9.8</ele>
        <time>2020-09-06T14:06:19Z</time>
      </trkpt>
      <trkpt lat="51.224631274453" lon="4.458892269463">
        <ele>8</ele>
        <time>2020-09-06T14:06:29Z</time>
      </trkpt>
      <trkpt lat="51.22520820063" lon="4.458749358068">
        <ele>7.4</ele>
        <time>2020-09-06T14:06:39Z</time>
      </trkpt>
      <trkpt lat="51.225513217971" lon="4.458682721963">
        <ele>7.6</ele>
        <time>2020-09-06T14:06:45Z</time>
      </trkpt>
      <trkpt lat="51.225801052417" lon="4.458859244777">
        <ele>3.8</ele>
        <time>2020-09-06T14:06:52Z</time>
      </trkpt>
      <trkpt lat="51.225895767887" lon="4.458989248046">
        <ele>1.8</ele>
        <time>2020-09-06T14:06:54Z</time>
      </trkpt>
      <trkpt lat="51.226302709132" lon="4.45960498242">
        <ele>0.6</ele>
        <time>2020-09-06T14:07:06Z</time>
      </trkpt>
      <trkpt lat="51.226461378499" lon="4.459537759582">
        <ele>0</ele>
        <time>2020-09-06T14:07:10Z</time>
      </trkpt>
      <trkpt lat="51.226996143719" lon="4.459159735892">
        <ele>0</ele>
        <time>2020-09-06T14:07:20Z</time>
      </trkpt>
      <trkpt lat="51.227133187784" lon="4.459051609382">
        <ele>0</ele>
        <time>2020-09-06T14:07:22Z</time>
      </trkpt>
      <trkpt lat="51.228115462645" lon="4.458474850843">
        <ele>0.4</ele>
        <time>2020-09-06T14:07:43Z</time>
      </trkpt>
      <trkpt lat="51.22865232334" lon="4.458176874298">
        <ele>1.4</ele>
        <time>2020-09-06T14:07:54Z</time>
      </trkpt>
      <trkpt lat="51.229222041083" lon="4.458048798866">
        <ele>4.4</ele>
        <time>2020-09-06T14:08:05Z</time>
      </trkpt>
      <trkpt lat="51.229625042835" lon="4.457948383704">
        <ele>6</ele>
        <time>2020-09-06T14:08:14Z</time>
      </trkpt>
    </trkseg>
  </trk>
</gpx>